Observation data for Mertzon on 01/13/2021      Previous  Date  Next       Current Mesonet Observations  Soil Data  Daily Summary Page  Observations in Plain Language
KME1 130600Z 21002KT M02/M03 A3028 RMK A01 T10211025  RH  097%=      5-min Rain = 0
KME1 130601Z 21002KT M02/M03 A3028 RMK A01 T10211026  RH  096%=      5-min Rain = 0
KME1 130602Z 21003KT M02/M03 A3028 RMK A01 T10211026  RH  097%=      5-min Rain = 0
KME1 130603Z 22002KT M02/M03 A3028 RMK A01 T10221026  RH  097%=      5-min Rain = 0
KME1 130604Z 22002KT M02/M03 A3028 RMK A01 T10221026  RH  097%=      5-min Rain = 0
KME1 130605Z 22002KT M02/M03 A3028 RMK A01 T10221026  RH  097%=      5-min Rain = 0
KME1 130606Z 23002KT M02/M03 A3028 RMK A01 T10221026  RH  097%=      5-min Rain = 0
KME1 130607Z 23001KT M02/M03 A3027 RMK A01 T10231027  RH  097%=      5-min Rain = 0
KME1 130608Z 23001KT M02/M03 A3027 RMK A01 T10231026  RH  098%=      5-min Rain = 0
KME1 130609Z 24001KT M02/M03 A3027 RMK A01 T10221025  RH  098%=      5-min Rain = 0
KME1 130610Z 21001KT M02/M03 A3027 RMK A01 T10221025  RH  098%=      5-min Rain = 0
KME1 130611Z 22001KT M02/M02 A3027 RMK A01 T10211024  RH  098%=      5-min Rain = 0
KME1 130612Z 20001KT M02/M03 A3027 RMK A01 T10211025  RH  097%=      5-min Rain = 0
KME1 130613Z 18002KT M02/M02 A3027 RMK A01 T10201024  RH  097%=      5-min Rain = 0
KME1 130614Z 18002KT M02/M02 A3027 RMK A01 T10201024  RH  097%=      5-min Rain = 0
KME1 130615Z 19002KT M02/M02 A3027 RMK A01 T10191023  RH  097%=      5-min Rain = 0
KME1 130616Z 18002KT M02/M02 A3027 RMK A01 T10181023  RH  097%=      5-min Rain = 0
KME1 130617Z 17002KT M02/M02 A3027 RMK A01 T10181023  RH  096%=      5-min Rain = 0
KME1 130618Z 18001KT M02/M02 A3027 RMK A01 T10181023  RH  096%=      5-min Rain = 0
KME1 130619Z 19002KT M02/M02 A3027 RMK A01 T10171024  RH  095%=      5-min Rain = 0
KME1 130620Z 19001KT M02/M02 A3027 RMK A01 T10171024  RH  095%=      5-min Rain = 0
KME1 130621Z 19002KT M02/M02 A3027 RMK A01 T10171024  RH  095%=      5-min Rain = 0
KME1 130622Z 18002KT M02/M02 A3027 RMK A01 T10171024  RH  095%=      5-min Rain = 0
KME1 130623Z 17002KT M02/M03 A3026 RMK A01 T10171025  RH  095%=      5-min Rain = 0
KME1 130624Z 18001KT M02/M02 A3026 RMK A01 T10171024  RH  095%=      5-min Rain = 0
KME1 130625Z 19001KT M02/M03 A3026 RMK A01 T10171025  RH  094%=      5-min Rain = 0
KME1 130626Z 19001KT M02/M03 A3026 RMK A01 T10171025  RH  094%=      5-min Rain = 0
KME1 130627Z 21001KT M02/M03 A3026 RMK A01 T10171025  RH  094%=      5-min Rain = 0
KME1 130628Z 19002KT M02/M03 A3026 RMK A01 T10181025  RH  094%=      5-min Rain = 0
KME1 130629Z 18003KT M02/M03 A3026 RMK A01 T10171025  RH  095%=      5-min Rain = 0
KME1 130630Z 18004KT M02/M03 A3026 RMK A01 T10181025  RH  095%=      5-min Rain = 0
KME1 130631Z 18003KT M02/M03 A3026 RMK A01 T10181025  RH  095%=      5-min Rain = 0
KME1 130632Z 19004KT M02/M03 A3026 RMK A01 T10181025  RH  095%=      5-min Rain = 0
KME1 130633Z 18004KT M02/M03 A3026 RMK A01 T10181026  RH  095%=      5-min Rain = 0
KME1 130634Z 19005KT M02/M03 A3026 RMK A01 T10181027  RH  094%=      5-min Rain = 0
KME1 130635Z 18005KT M02/M03 A3026 RMK A01 T10191026  RH  095%=      5-min Rain = 0
KME1 130636Z 18005KT M02/M02 A3026 RMK A01 T10171023  RH  096%=      5-min Rain = 0
KME1 130637Z 18006KT M02/M02 A3026 RMK A01 T10161022  RH  096%=      5-min Rain = 0
KME1 130638Z 18005KT M02/M02 A3026 RMK A01 T10151021  RH  096%=      5-min Rain = 0
KME1 130639Z 19005KT M01/M02 A3026 RMK A01 T10141021  RH  095%=      5-min Rain = 0
KME1 130640Z 19005KT M01/M02 A3026 RMK A01 T10141022  RH  094%=      5-min Rain = 0
KME1 130641Z 20004KT M01/M02 A3026 RMK A01 T10131022  RH  094%=      5-min Rain = 0
KME1 130642Z 20003KT M01/M02 A3026 RMK A01 T10131023  RH  093%=      5-min Rain = 0
KME1 130643Z 20003KT M01/M02 A3026 RMK A01 T10141024  RH  093%=      5-min Rain = 0
KME1 130644Z 20003KT M02/M03 A3026 RMK A01 T10151025  RH  093%=      5-min Rain = 0
KME1 130645Z 20003KT M02/M03 A3026 RMK A01 T10151025  RH  093%=      5-min Rain = 0
KME1 130646Z 19004KT M02/M03 A3026 RMK A01 T10161025  RH  093%=      5-min Rain = 0
KME1 130647Z 19004KT M02/M03 A3026 RMK A01 T10161025  RH  094%=      5-min Rain = 0
KME1 130648Z 19003KT M02/M02 A3026 RMK A01 T10161024  RH  094%=      5-min Rain = 0
KME1 130649Z 19003KT M02/M03 A3026 RMK A01 T10171025  RH  094%=      5-min Rain = 0
KME1 130650Z 19004KT M02/M03 A3026 RMK A01 T10171025  RH  094%=      5-min Rain = 0
KME1 130651Z 19003KT M02/M03 A3026 RMK A01 T10171026  RH  094%=      5-min Rain = 0
KME1 130652Z 18003KT M02/M03 A3026 RMK A01 T10181026  RH  094%=      5-min Rain = 0
KME1 130653Z 18003KT M02/M03 A3026 RMK A01 T10181026  RH  095%=      5-min Rain = 0
KME1 130654Z 19003KT M02/M03 A3026 RMK A01 T10181025  RH  095%=      5-min Rain = 0
KME1 130655Z 19003KT M02/M03 A3026 RMK A01 T10181025  RH  095%=      5-min Rain = 0
KME1 130656Z 19003KT M02/M03 A3025 RMK A01 T10181025  RH  095%=      5-min Rain = 0
KME1 130657Z 19003KT M02/M03 A3025 RMK A01 T10191026  RH  095%=      5-min Rain = 0
KME1 130658Z 20003KT M02/M03 A3025 RMK A01 T10191026  RH  095%=      5-min Rain = 0
KME1 130659Z 20003KT M02/M03 A3025 RMK A01 T10201027  RH  095%=      5-min Rain = 0
KME1 130700Z 20004KT M02/M03 A3025 RMK A01 T10211027  RH  095%=      5-min Rain = 0
KME1 130701Z 20004KT M02/M03 A3025 RMK A01 T10211027  RH  096%=      5-min Rain = 0
KME1 130702Z 20004KT M02/M03 A3025 RMK A01 T10211026  RH  097%=      5-min Rain = 0
KME1 130703Z 20004KT M02/M03 A3025 RMK A01 T10221026  RH  097%=      5-min Rain = 0
KME1 130704Z 19004KT M02/M03 A3025 RMK A01 T10221026  RH  097%=      5-min Rain = 0
KME1 130705Z 20004KT M02/M03 A3025 RMK A01 T10221025  RH  098%=      5-min Rain = 0
KME1 130706Z 20004KT M02/M02 A3025 RMK A01 T10221024  RH  098%=      5-min Rain = 0
KME1 130707Z 20004KT M02/M02 A3025 RMK A01 T10221024  RH  098%=      5-min Rain = 0
KME1 130708Z 20004KT M02/M03 A3025 RMK A01 T10221025  RH  098%=      5-min Rain = 0
KME1 130709Z 19004KT M02/M03 A3025 RMK A01 T10221025  RH  098%=      5-min Rain = 0
KME1 130710Z 19004KT M02/M02 A3025 RMK A01 T10221024  RH  098%=      5-min Rain = 0
KME1 130711Z 20004KT M02/M02 A3025 RMK A01 T10221024  RH  099%=      5-min Rain = 0
KME1 130712Z 19004KT M02/M02 A3025 RMK A01 T10221024  RH  099%=      5-min Rain = 0
KME1 130713Z 19005KT M02/M02 A3025 RMK A01 T10221023  RH  099%=      5-min Rain = 0
KME1 130714Z 19005KT M02/M02 A3025 RMK A01 T10211023  RH  099%=      5-min Rain = 0
KME1 130715Z 19006KT M02/M02 A3025 RMK A01 T10211023  RH  099%=      5-min Rain = 0
KME1 130716Z 19006KT M02/M02 A3025 RMK A01 T10211023  RH  099%=      5-min Rain = 0
KME1 130717Z 19006KT M02/M02 A3025 RMK A01 T10201023  RH  098%=      5-min Rain = 0
KME1 130718Z 19006KT M02/M02 A3025 RMK A01 T10201022  RH  099%=      5-min Rain = 0
KME1 130719Z 19006KT M02/M02 A3025 RMK A01 T10191022  RH  098%=      5-min Rain = 0
KME1 130720Z 19007KT M02/M02 A3025 RMK A01 T10191022  RH  098%=      5-min Rain = 0
KME1 130721Z 19006KT M02/M02 A3025 RMK A01 T10181021  RH  098%=      5-min Rain = 0
KME1 130722Z 19007KT M02/M02 A3025 RMK A01 T10171021  RH  097%=      5-min Rain = 0
KME1 130723Z 19006KT M02/M02 A3025 RMK A01 T10161021  RH  097%=      5-min Rain = 0
KME1 130724Z 19006KT M02/M02 A3025 RMK A01 T10161021  RH  096%=      5-min Rain = 0
KME1 130725Z 19006KT M02/M02 A3025 RMK A01 T10161021  RH  096%=      5-min Rain = 0
KME1 130726Z 19006KT M02/M02 A3025 RMK A01 T10151020  RH  096%=      5-min Rain = 0
KME1 130727Z 20006KT M01/M02 A3025 RMK A01 T10141021  RH  096%=      5-min Rain = 0
KME1 130728Z 19006KT M02/M02 A3025 RMK A01 T10151021  RH  095%=      5-min Rain = 0
KME1 130729Z 19006KT M01/M02 A3025 RMK A01 T10141021  RH  095%=      5-min Rain = 0
KME1 130730Z 20006KT M01/M02 A3025 RMK A01 T10141021  RH  095%=      5-min Rain = 0
KME1 130731Z 19006KT M01/M02 A3025 RMK A01 T10141022  RH  094%=      5-min Rain = 0
KME1 130732Z 20006KT M01/M02 A3025 RMK A01 T10131021  RH  094%=      5-min Rain = 0
KME1 130733Z 20006KT M01/M02 A3025 RMK A01 T10121020  RH  094%=      5-min Rain = 0
KME1 130734Z 20006KT M01/M02 A3025 RMK A01 T10121021  RH  094%=      5-min Rain = 0
KME1 130735Z 19007KT M01/M02 A3025 RMK A01 T10111020  RH  093%=      5-min Rain = 0
KME1 130736Z 20006KT M01/M02 A3025 RMK A01 T10091019  RH  093%=      5-min Rain = 0
KME1 130737Z 19006KT M01/M02 A3025 RMK A01 T10081020  RH  092%=      5-min Rain = 0
KME1 130738Z 19006KT M01/M02 A3025 RMK A01 T10081021  RH  091%=      5-min Rain = 0
KME1 130739Z 19007KT M01/M02 A3025 RMK A01 T10081020  RH  091%=      5-min Rain = 0
KME1 130740Z 19006KT M01/M02 A3025 RMK A01 T10071020  RH  091%=      5-min Rain = 0
KME1 130741Z 19006KT M01/M02 A3025 RMK A01 T10071021  RH  090%=      5-min Rain = 0
KME1 130742Z 19006KT M01/M02 A3025 RMK A01 T10071021  RH  090%=      5-min Rain = 0
KME1 130743Z 19006KT M01/M02 A3025 RMK A01 T10061021  RH  090%=      5-min Rain = 0
KME1 130744Z 19006KT M01/M02 A3025 RMK A01 T10061021  RH  090%=      5-min Rain = 0
KME1 130745Z 20006KT M01/M02 A3025 RMK A01 T10061020  RH  090%=      5-min Rain = 0
KME1 130746Z 19006KT M01/M02 A3025 RMK A01 T10061020  RH  090%=      5-min Rain = 0
KME1 130747Z 20005KT M01/M02 A3025 RMK A01 T10061021  RH  090%=      5-min Rain = 0
KME1 130748Z 19005KT M01/M02 A3025 RMK A01 T10071022  RH  090%=      5-min Rain = 0
KME1 130749Z 19004KT M01/M02 A3025 RMK A01 T10081023  RH  090%=      5-min Rain = 0
KME1 130750Z 19003KT M01/M02 A3025 RMK A01 T10091024  RH  090%=      5-min Rain = 0
KME1 130751Z 19004KT M01/M03 A3025 RMK A01 T10111027  RH  089%=      5-min Rain = 0
KME1 130752Z 19004KT M01/M03 A3025 RMK A01 T10131028  RH  089%=      5-min Rain = 0
KME1 130753Z 19004KT M02/M03 A3025 RMK A01 T10151029  RH  090%=      5-min Rain = 0
KME1 130754Z 20004KT M02/M03 A3025 RMK A01 T10161028  RH  091%=      5-min Rain = 0
KME1 130755Z 20005KT M02/M03 A3025 RMK A01 T10161027  RH  092%=      5-min Rain = 0
KME1 130756Z 20005KT M02/M03 A3025 RMK A01 T10161026  RH  093%=      5-min Rain = 0
KME1 130757Z 20005KT M02/M03 A3025 RMK A01 T10171026  RH  093%=      5-min Rain = 0
KME1 130758Z 19005KT M02/M03 A3024 RMK A01 T10171025  RH  094%=      5-min Rain = 0
KME1 130759Z 19005KT M02/M02 A3024 RMK A01 T10171024  RH  095%=      5-min Rain = 0
KME1 130800Z 19005KT M02/M02 A3024 RMK A01 T10171023  RH  095%=      5-min Rain = 0
KME1 130801Z 19005KT M02/M02 A3024 RMK A01 T10161022  RH  095%=      5-min Rain = 0
KME1 130802Z 19005KT M02/M02 A3024 RMK A01 T10161022  RH  095%=      5-min Rain = 0
KME1 130803Z 19005KT M02/M02 A3024 RMK A01 T10161022  RH  095%=      5-min Rain = 0
KME1 130804Z 20005KT M02/M02 A3024 RMK A01 T10151020  RH  096%=      5-min Rain = 0
KME1 130805Z 21005KT M02/M02 A3024 RMK A01 T10151021  RH  096%=      5-min Rain = 0
KME1 130806Z 20006KT M02/M02 A3024 RMK A01 T10151020  RH  096%=      5-min Rain = 0
KME1 130807Z 21006KT M01/M02 A3024 RMK A01 T10131017  RH  097%=      5-min Rain = 0
KME1 130808Z 21006KT M01/M01 A3025 RMK A01 T10111014  RH  098%=      5-min Rain = 0
KME1 130809Z 21007KT M01/M01 A3025 RMK A01 T10071009  RH  099%=      5-min Rain = 0
KME1 130810Z 21008KT M00/M01 A3025 RMK A01 T10021006  RH  097%=      5-min Rain = 0
KME1 130811Z 20007KT 00/M01 A3025 RMK A01 T00011009  RH  093%=      5-min Rain = 0
KME1 130812Z 20007KT 00/M01 A3025 RMK A01 T00041010  RH  091%=      5-min Rain = 0
KME1 130813Z 21007KT 01/M01 A3025 RMK A01 T00051012  RH  088%=      5-min Rain = 0
KME1 130814Z 21007KT 01/M01 A3025 RMK A01 T00061013  RH  087%=      5-min Rain = 0
KME1 130815Z 20007KT 01/M01 A3025 RMK A01 T00071013  RH  086%=      5-min Rain = 0
KME1 130816Z 21008KT 01/M01 A3025 RMK A01 T00071014  RH  086%=      5-min Rain = 0
KME1 130817Z 21009KT 01/M01 A3025 RMK A01 T00081014  RH  086%=      5-min Rain = 0
KME1 130818Z 20008KT 01/M01 A3025 RMK A01 T00091014  RH  085%=      5-min Rain = 0
KME1 130819Z 20009KT 01/M02 A3025 RMK A01 T00091015  RH  084%=      5-min Rain = 0
KME1 130820Z 21009KT 01/M02 A3024 RMK A01 T00101015  RH  084%=      5-min Rain = 0
KME1 130821Z 20009KT 01/M02 A3024 RMK A01 T00101015  RH  084%=      5-min Rain = 0
KME1 130822Z 21009KT 01/M02 A3024 RMK A01 T00101015  RH  084%=      5-min Rain = 0
KME1 130823Z 21009KT 01/M02 A3024 RMK A01 T00101015  RH  083%=      5-min Rain = 0
KME1 130824Z 21009KT 01/M02 A3024 RMK A01 T00101016  RH  083%=      5-min Rain = 0
KME1 130825Z 21009KT 01/M02 A3024 RMK A01 T00101015  RH  083%=      5-min Rain = 0
KME1 130826Z 21009KT 01/M02 A3024 RMK A01 T00101016  RH  083%=      5-min Rain = 0
KME1 130827Z 21008KT 01/M02 A3024 RMK A01 T00101016  RH  083%=      5-min Rain = 0
KME1 130828Z 21009KT 01/M02 A3024 RMK A01 T00101016  RH  083%=      5-min Rain = 0
KME1 130829Z 21009KT 01/M02 A3024 RMK A01 T00101015  RH  083%=      5-min Rain = 0
KME1 130830Z 21010KT 01/M02 A3024 RMK A01 T00101016  RH  083%=      5-min Rain = 0
KME1 130831Z 20010KT 01/M02 A3024 RMK A01 T00101016  RH  083%=      5-min Rain = 0
KME1 130832Z 21010KT 01/M02 A3024 RMK A01 T00101016  RH  083%=      5-min Rain = 0
KME1 130833Z 20012KT 01/M02 A3024 RMK A01 T00091016  RH  083%=      5-min Rain = 0
KME1 130834Z 20011KT 01/M02 A3024 RMK A01 T00101016  RH  083%=      5-min Rain = 0
KME1 130835Z 20010KT 01/M02 A3024 RMK A01 T00101016  RH  083%=      5-min Rain = 0
KME1 130836Z 20013KT 01/M02 A3024 RMK A01 T00101016  RH  083%=      5-min Rain = 0
KME1 130837Z 20012KT 01/M02 A3024 RMK A01 T00111016  RH  082%=      5-min Rain = 0
KME1 130838Z 20012KT 01/M02 A3024 RMK A01 T00121016  RH  082%=      5-min Rain = 0
KME1 130839Z 21011KT 01/M02 A3024 RMK A01 T00121017  RH  081%=      5-min Rain = 0
KME1 130840Z 20011KT 01/M02 A3024 RMK A01 T00121017  RH  081%=      5-min Rain = 0
KME1 130841Z 20012KT 01/M02 A3024 RMK A01 T00111017  RH  082%=      5-min Rain = 0
KME1 130842Z 20010KT 01/M02 A3024 RMK A01 T00111017  RH  081%=      5-min Rain = 0
KME1 130843Z 20012KT 01/M02 A3024 RMK A01 T00101018  RH  081%=      5-min Rain = 0
KME1 130844Z 20011KT 01/M02 A3024 RMK A01 T00101018  RH  082%=      5-min Rain = 0
KME1 130845Z 20010KT 01/M02 A3024 RMK A01 T00111018  RH  081%=      5-min Rain = 0
KME1 130846Z 20011KT 01/M02 A3024 RMK A01 T00101018  RH  081%=      5-min Rain = 0
KME1 130847Z 20010KT 01/M02 A3024 RMK A01 T00101018  RH  082%=      5-min Rain = 0
KME1 130848Z 20010KT 01/M02 A3024 RMK A01 T00091019  RH  082%=      5-min Rain = 0
KME1 130849Z 20009KT 01/M02 A3024 RMK A01 T00081020  RH  082%=      5-min Rain = 0
KME1 130850Z 20009KT 01/M02 A3024 RMK A01 T00061021  RH  082%=      5-min Rain = 0
KME1 130851Z 20009KT 01/M02 A3024 RMK A01 T00051021  RH  083%=      5-min Rain = 0
KME1 130852Z 20009KT 01/M02 A3024 RMK A01 T00051020  RH  083%=      5-min Rain = 0
KME1 130853Z 20009KT 00/M02 A3024 RMK A01 T00041021  RH  083%=      5-min Rain = 0
KME1 130854Z 20009KT 00/M02 A3024 RMK A01 T00041021  RH  084%=      5-min Rain = 0
KME1 130855Z 20008KT 00/M02 A3024 RMK A01 T00031021  RH  084%=      5-min Rain = 0
KME1 130856Z 20008KT 00/M02 A3024 RMK A01 T00031021  RH  084%=      5-min Rain = 0
KME1 130857Z 20008KT 00/M02 A3024 RMK A01 T00021021  RH  084%=      5-min Rain = 0
KME1 130858Z 19009KT 00/M02 A3024 RMK A01 T00021021  RH  085%=      5-min Rain = 0
KME1 130859Z 19008KT 00/M02 A3024 RMK A01 T00011021  RH  085%=      5-min Rain = 0
KME1 130900Z 19008KT 00/M02 A3024 RMK A01 T00011022  RH  085%=      5-min Rain = 0
KME1 130901Z 19008KT 00/02 A3024 RMK A01 T00-00-22  RH  086%=      5-min Rain = 0
KME1 130902Z 19009KT M00/M02 A3024 RMK A01 T10011022  RH  086%=      5-min Rain = 0
KME1 130903Z 19009KT 00/02 A3024 RMK A01 T00-00-21  RH  086%=      5-min Rain = 0
KME1 130904Z 19008KT M00/M02 A3024 RMK A01 T10011021  RH  086%=      5-min Rain = 0
KME1 130905Z 19009KT M00/M02 A3024 RMK A01 T10011021  RH  086%=      5-min Rain = 0
KME1 130906Z 19009KT M00/M02 A3024 RMK A01 T10011021  RH  086%=      5-min Rain = 0
KME1 130907Z 19009KT M00/M02 A3024 RMK A01 T10011021  RH  086%=      5-min Rain = 0
KME1 130908Z 20007KT M00/M02 A3024 RMK A01 T10021021  RH  087%=      5-min Rain = 0
KME1 130909Z 19008KT M00/M02 A3024 RMK A01 T10011021  RH  087%=      5-min Rain = 0
KME1 130910Z 19009KT M00/M02 A3024 RMK A01 T10021021  RH  087%=      5-min Rain = 0
KME1 130911Z 19009KT M00/M02 A3024 RMK A01 T10021021  RH  087%=      5-min Rain = 0
KME1 130912Z 19008KT M00/M02 A3024 RMK A01 T10021021  RH  087%=      5-min Rain = 0
KME1 130913Z 19008KT M00/M02 A3024 RMK A01 T10021021  RH  087%=      5-min Rain = 0
KME1 130914Z 19008KT M00/M02 A3024 RMK A01 T10011020  RH  087%=      5-min Rain = 0
KME1 130915Z 19008KT M00/M02 A3024 RMK A01 T10011021  RH  087%=      5-min Rain = 0
KME1 130916Z 19008KT M00/M02 A3024 RMK A01 T10011021  RH  087%=      5-min Rain = 0
KME1 130917Z 19008KT M00/M02 A3024 RMK A01 T10011021  RH  087%=      5-min Rain = 0
KME1 130918Z 19008KT M00/M02 A3024 RMK A01 T10011021  RH  087%=      5-min Rain = 0
KME1 130919Z 18007KT M00/M02 A3024 RMK A01 T10011021  RH  087%=      5-min Rain = 0
KME1 130920Z 18007KT M00/M02 A3024 RMK A01 T10021021  RH  087%=      5-min Rain = 0
KME1 130921Z 18007KT M00/M02 A3024 RMK A01 T10021022  RH  087%=      5-min Rain = 0
KME1 130922Z 18008KT M00/M02 A3024 RMK A01 T10031022  RH  087%=      5-min Rain = 0
KME1 130923Z 18007KT M00/M02 A3024 RMK A01 T10041022  RH  087%=      5-min Rain = 0
KME1 130924Z 18008KT M00/M02 A3024 RMK A01 T10041023  RH  088%=      5-min Rain = 0
KME1 130925Z 18008KT M01/M02 A3024 RMK A01 T10051023  RH  088%=      5-min Rain = 0
KME1 130926Z 19007KT M01/M02 A3024 RMK A01 T10051022  RH  088%=      5-min Rain = 0
KME1 130927Z 19006KT M01/M02 A3024 RMK A01 T10051022  RH  089%=      5-min Rain = 0
KME1 130928Z 19006KT M01/M02 A3024 RMK A01 T10061023  RH  088%=      5-min Rain = 0
KME1 130929Z 19007KT M01/M02 A3024 RMK A01 T10071023  RH  089%=      5-min Rain = 0
KME1 130930Z 19007KT M01/M02 A3024 RMK A01 T10071022  RH  090%=      5-min Rain = 0
KME1 130931Z 19007KT M01/M02 A3024 RMK A01 T10071022  RH  090%=      5-min Rain = 0
KME1 130932Z 19008KT M01/M02 A3024 RMK A01 T10071022  RH  090%=      5-min Rain = 0
KME1 130933Z 19007KT M01/M02 A3024 RMK A01 T10071022  RH  090%=      5-min Rain = 0
KME1 130934Z 18007KT M01/M02 A3024 RMK A01 T10071021  RH  090%=      5-min Rain = 0
KME1 130935Z 19008KT M01/M02 A3024 RMK A01 T10071021  RH  090%=      5-min Rain = 0
KME1 130936Z 19007KT M01/M02 A3024 RMK A01 T10061020  RH  091%=      5-min Rain = 0
KME1 130937Z 19008KT M01/M02 A3024 RMK A01 T10061020  RH  090%=      5-min Rain = 0
KME1 130938Z 19007KT M01/M02 A3024 RMK A01 T10051020  RH  090%=      5-min Rain = 0
KME1 130939Z 19007KT M01/M02 A3024 RMK A01 T10051021  RH  089%=      5-min Rain = 0
KME1 130940Z 19007KT M01/M02 A3024 RMK A01 T10051021  RH  089%=      5-min Rain = 0
KME1 130941Z 19007KT M01/M02 A3024 RMK A01 T10051021  RH  089%=      5-min Rain = 0
KME1 130942Z 19007KT M00/M02 A3024 RMK A01 T10041021  RH  089%=      5-min Rain = 0
KME1 130943Z 19006KT M01/M02 A3024 RMK A01 T10051022  RH  088%=      5-min Rain = 0
KME1 130944Z 19007KT M01/M02 A3024 RMK A01 T10051022  RH  088%=      5-min Rain = 0
KME1 130945Z 19007KT M01/M02 A3024 RMK A01 T10051022  RH  089%=      5-min Rain = 0
KME1 130946Z 19006KT M01/M02 A3024 RMK A01 T10051022  RH  089%=      5-min Rain = 0
KME1 130947Z 19005KT M01/M02 A3024 RMK A01 T10051021  RH  089%=      5-min Rain = 0
KME1 130948Z 19005KT M01/M02 A3024 RMK A01 T10051021  RH  089%=      5-min Rain = 0
KME1 130949Z 20004KT M01/M02 A3024 RMK A01 T10051021  RH  089%=      5-min Rain = 0
KME1 130950Z 19005KT M01/M02 A3024 RMK A01 T10051022  RH  089%=      5-min Rain = 0
KME1 130951Z 19004KT M01/M02 A3024 RMK A01 T10051021  RH  089%=      5-min Rain = 0
KME1 130952Z 19005KT M01/M02 A3024 RMK A01 T10061020  RH  090%=      5-min Rain = 0
KME1 130953Z 19005KT M01/M02 A3024 RMK A01 T10051019  RH  090%=      5-min Rain = 0
KME1 130954Z 19005KT M00/M02 A3024 RMK A01 T10041019  RH  090%=      5-min Rain = 0
KME1 130955Z 19006KT M00/M02 A3024 RMK A01 T10031019  RH  090%=      5-min Rain = 0
KME1 130956Z 19005KT M00/M02 A3024 RMK A01 T10031019  RH  089%=      5-min Rain = 0
KME1 130957Z 19004KT M00/M02 A3024 RMK A01 T10021018  RH  089%=      5-min Rain = 0
KME1 130958Z 18004KT M00/M02 A3024 RMK A01 T10021019  RH  088%=      5-min Rain = 0
KME1 130959Z 19005KT M00/M02 A3024 RMK A01 T10031020  RH  088%=      5-min Rain = 0
KME1 131000Z 20003KT M00/M02 A3024 RMK A01 T10031020  RH  088%=      5-min Rain = 0
KME1 131001Z 19005KT M00/M02 A3024 RMK A01 T10031020  RH  088%=      5-min Rain = 0
KME1 131002Z 19004KT M00/M02 A3024 RMK A01 T10031020  RH  088%=      5-min Rain = 0
KME1 131003Z 20004KT M00/M02 A3024 RMK A01 T10031020  RH  089%=      5-min Rain = 0
KME1 131004Z 19005KT M00/M02 A3024 RMK A01 T10031019  RH  089%=      5-min Rain = 0
KME1 131005Z 19003KT M00/M02 A3024 RMK A01 T10021018  RH  089%=      5-min Rain = 0
KME1 131006Z 19003KT M00/M02 A3024 RMK A01 T10011018  RH  089%=      5-min Rain = 0
KME1 131007Z 19004KT M00/M02 A3024 RMK A01 T10011019  RH  088%=      5-min Rain = 0
KME1 131008Z 19005KT M00/M02 A3024 RMK A01 T10011019  RH  088%=      5-min Rain = 0
KME1 131009Z 19005KT M00/M02 A3024 RMK A01 T10011019  RH  088%=      5-min Rain = 0
KME1 131010Z 18005KT M00/M02 A3024 RMK A01 T10011018  RH  088%=      5-min Rain = 0
KME1 131011Z 19006KT 00/02 A3024 RMK A01 T00000-17  RH  088%=      5-min Rain = 0
KME1 131012Z 19006KT 00/02 A3024 RMK A01 T00000-17  RH  088%=      5-min Rain = 0
KME1 131013Z 19005KT 00/M02 A3024 RMK A01 T00011017  RH  088%=      5-min Rain = 0
KME1 131014Z 18006KT 00/M02 A3024 RMK A01 T00011017  RH  087%=      5-min Rain = 0
KME1 131015Z 19006KT 00/M02 A3024 RMK A01 T00021017  RH  087%=      5-min Rain = 0
KME1 131016Z 19007KT 00/M02 A3024 RMK A01 T00021017  RH  087%=      5-min Rain = 0
KME1 131017Z 19007KT 00/M02 A3024 RMK A01 T00021017  RH  087%=      5-min Rain = 0
KME1 131018Z 18006KT 00/M02 A3024 RMK A01 T00021017  RH  087%=      5-min Rain = 0
KME1 131019Z 19006KT 00/M02 A3024 RMK A01 T00021018  RH  087%=      5-min Rain = 0
KME1 131020Z 19006KT 00/M02 A3024 RMK A01 T00011018  RH  087%=      5-min Rain = 0
KME1 131021Z 19006KT 00/M02 A3024 RMK A01 T00011018  RH  087%=      5-min Rain = 0
KME1 131022Z 19006KT 00/M02 A3024 RMK A01 T00011018  RH  087%=      5-min Rain = 0
KME1 131023Z 20006KT 00/M02 A3024 RMK A01 T00011018  RH  087%=      5-min Rain = 0
KME1 131024Z 19006KT 00/02 A3024 RMK A01 T00000-18  RH  088%=      5-min Rain = 0
KME1 131025Z 19006KT 00/M02 A3024 RMK A01 T00011017  RH  088%=      5-min Rain = 0
KME1 131026Z 18007KT 00/M02 A3024 RMK A01 T00011018  RH  087%=      5-min Rain = 0
KME1 131027Z 19006KT 00/M02 A3024 RMK A01 T00021017  RH  087%=      5-min Rain = 0
KME1 131028Z 19006KT 00/M02 A3024 RMK A01 T00021018  RH  086%=      5-min Rain = 0
KME1 131029Z 19005KT 00/02 A3024 RMK A01 T00000-20  RH  086%=      5-min Rain = 0
KME1 131030Z 19006KT 00/02 A3024 RMK A01 T00-00-20  RH  087%=      5-min Rain = 0
KME1 131031Z 19005KT M00/M02 A3024 RMK A01 T10011020  RH  087%=      5-min Rain = 0
KME1 131032Z 18006KT M00/M02 A3024 RMK A01 T10021020  RH  087%=      5-min Rain = 0
KME1 131033Z 19006KT M00/M02 A3024 RMK A01 T10021020  RH  088%=      5-min Rain = 0
KME1 131034Z 18006KT M00/M02 A3024 RMK A01 T10031022  RH  087%=      5-min Rain = 0
KME1 131035Z 18007KT M00/M02 A3024 RMK A01 T10041022  RH  088%=      5-min Rain = 0
KME1 131036Z 19006KT M01/M02 A3024 RMK A01 T10051021  RH  089%=      5-min Rain = 0
KME1 131037Z 19007KT M00/M02 A3024 RMK A01 T10041020  RH  089%=      5-min Rain = 0
KME1 131038Z 19006KT M00/M02 A3024 RMK A01 T10041020  RH  089%=      5-min Rain = 0
KME1 131039Z 19007KT M00/M02 A3024 RMK A01 T10041021  RH  089%=      5-min Rain = 0
KME1 131040Z 19007KT M01/M02 A3024 RMK A01 T10051021  RH  089%=      5-min Rain = 0
KME1 131041Z 19006KT M01/M02 A3023 RMK A01 T10061021  RH  089%=      5-min Rain = 0
KME1 131042Z 19007KT M01/M02 A3023 RMK A01 T10061021  RH  090%=      5-min Rain = 0
KME1 131043Z 18007KT M01/M02 A3023 RMK A01 T10061020  RH  090%=      5-min Rain = 0
KME1 131044Z 19007KT M01/M02 A3023 RMK A01 T10061020  RH  091%=      5-min Rain = 0
KME1 131045Z 18007KT M01/M02 A3023 RMK A01 T10061020  RH  090%=      5-min Rain = 0
KME1 131046Z 18008KT M01/M02 A3023 RMK A01 T10061021  RH  090%=      5-min Rain = 0
KME1 131047Z 18007KT M01/M02 A3023 RMK A01 T10061020  RH  090%=      5-min Rain = 0
KME1 131048Z 18007KT M01/M02 A3023 RMK A01 T10061020  RH  090%=      5-min Rain = 0
KME1 131049Z 18007KT M01/M02 A3023 RMK A01 T10071020  RH  091%=      5-min Rain = 0
KME1 131050Z 18006KT M01/M02 A3023 RMK A01 T10071020  RH  091%=      5-min Rain = 0
KME1 131051Z 19007KT M01/M02 A3023 RMK A01 T10071020  RH  091%=      5-min Rain = 0
KME1 131052Z 18007KT M01/M02 A3023 RMK A01 T10071020  RH  091%=      5-min Rain = 0
KME1 131053Z 18006KT M01/M02 A3023 RMK A01 T10071020  RH  091%=      5-min Rain = 0
KME1 131054Z 18006KT M01/M02 A3023 RMK A01 T10071021  RH  091%=      5-min Rain = 0
KME1 131055Z 19006KT M01/M02 A3023 RMK A01 T10071020  RH  091%=      5-min Rain = 0
KME1 131056Z 19006KT M01/M02 A3023 RMK A01 T10081020  RH  091%=      5-min Rain = 0
KME1 131057Z 19006KT M01/M02 A3023 RMK A01 T10071019  RH  092%=      5-min Rain = 0
KME1 131058Z 19006KT M01/M02 A3023 RMK A01 T10071019  RH  091%=      5-min Rain = 0
KME1 131059Z 19006KT M01/M02 A3023 RMK A01 T10071020  RH  091%=      5-min Rain = 0
KME1 131100Z 18006KT M01/M02 A3023 RMK A01 T10071020  RH  091%=      5-min Rain = 0
KME1 131101Z 18007KT M01/M02 A3023 RMK A01 T10071019  RH  091%=      5-min Rain = 0
KME1 131102Z 18005KT M01/M02 A3023 RMK A01 T10061018  RH  091%=      5-min Rain = 0
KME1 131103Z 18006KT M01/M02 A3023 RMK A01 T10061020  RH  090%=      5-min Rain = 0
KME1 131104Z 18007KT M01/M02 A3023 RMK A01 T10061020  RH  090%=      5-min Rain = 0
KME1 131105Z 18006KT M01/M02 A3023 RMK A01 T10061019  RH  091%=      5-min Rain = 0
KME1 131106Z 19007KT M01/M02 A3023 RMK A01 T10061019  RH  091%=      5-min Rain = 0
KME1 131107Z 19006KT M01/M02 A3023 RMK A01 T10061019  RH  091%=      5-min Rain = 0
KME1 131108Z 19007KT M01/M02 A3023 RMK A01 T10051019  RH  091%=      5-min Rain = 0
KME1 131109Z 19006KT M01/M02 A3023 RMK A01 T10051019  RH  090%=      5-min Rain = 0
KME1 131110Z 19006KT M00/M02 A3023 RMK A01 T10041019  RH  090%=      5-min Rain = 0
KME1 131111Z 20005KT M01/M02 A3023 RMK A01 T10051020  RH  090%=      5-min Rain = 0
KME1 131112Z 19006KT M00/M02 A3023 RMK A01 T10041019  RH  090%=      5-min Rain = 0
KME1 131113Z 19005KT M01/M02 A3023 RMK A01 T10051019  RH  090%=      5-min Rain = 0
KME1 131114Z 20005KT M01/M02 A3023 RMK A01 T10051019  RH  090%=      5-min Rain = 0
KME1 131115Z 20005KT M00/M02 A3023 RMK A01 T10041018  RH  090%=      5-min Rain = 0
KME1 131116Z 20004KT M00/M02 A3023 RMK A01 T10041018  RH  090%=      5-min Rain = 0
KME1 131117Z 20005KT M00/M02 A3023 RMK A01 T10031018  RH  090%=      5-min Rain = 0
KME1 131118Z 21004KT M00/M02 A3023 RMK A01 T10031017  RH  090%=      5-min Rain = 0
KME1 131119Z 20005KT M00/M02 A3023 RMK A01 T10021017  RH  090%=      5-min Rain = 0
KME1 131120Z 20005KT M00/M02 A3023 RMK A01 T10011016  RH  090%=      5-min Rain = 0
KME1 131121Z 20006KT 00/02 A3022 RMK A01 T00000-15  RH  089%=      5-min Rain = 0
KME1 131122Z 20006KT 00/M01 A3022 RMK A01 T00021014  RH  089%=      5-min Rain = 0
KME1 131123Z 20004KT 00/M02 A3022 RMK A01 T00031015  RH  088%=      5-min Rain = 0
KME1 131124Z 20005KT 00/M02 A3022 RMK A01 T00041016  RH  087%=      5-min Rain = 0
KME1 131125Z 20004KT 00/M02 A3022 RMK A01 T00041017  RH  086%=      5-min Rain = 0
KME1 131126Z 20007KT 00/M02 A3022 RMK A01 T00041017  RH  086%=      5-min Rain = 0
KME1 131127Z 20006KT 00/M02 A3022 RMK A01 T00041016  RH  086%=      5-min Rain = 0
KME1 131128Z 20005KT 01/M02 A3022 RMK A01 T00051016  RH  086%=      5-min Rain = 0
KME1 131129Z 19007KT 01/M02 A3022 RMK A01 T00051017  RH  086%=      5-min Rain = 0
KME1 131130Z 20005KT 01/M02 A3022 RMK A01 T00061017  RH  085%=      5-min Rain = 0
KME1 131131Z 19005KT 01/M02 A3022 RMK A01 T00051018  RH  085%=      5-min Rain = 0
KME1 131132Z 19005KT 01/M02 A3022 RMK A01 T00051018  RH  085%=      5-min Rain = 0
KME1 131133Z 19006KT 00/M02 A3022 RMK A01 T00041018  RH  085%=      5-min Rain = 0
KME1 131134Z 19005KT 00/M02 A3022 RMK A01 T00041017  RH  085%=      5-min Rain = 0
KME1 131135Z 19005KT 00/M02 A3022 RMK A01 T00041018  RH  085%=      5-min Rain = 0
KME1 131136Z 19004KT 00/M02 A3022 RMK A01 T00041019  RH  085%=      5-min Rain = 0
KME1 131137Z 19004KT 00/M02 A3022 RMK A01 T00031019  RH  085%=      5-min Rain = 0
KME1 131138Z 18004KT 00/M02 A3022 RMK A01 T00021020  RH  085%=      5-min Rain = 0
KME1 131139Z 18004KT 00/M02 A3022 RMK A01 T00011021  RH  085%=      5-min Rain = 0
KME1 131140Z 19004KT M00/M02 A3022 RMK A01 T10011023  RH  085%=      5-min Rain = 0
KME1 131141Z 19004KT M00/M02 A3022 RMK A01 T10021023  RH  086%=      5-min Rain = 0
KME1 131142Z 19004KT M00/M02 A3022 RMK A01 T10031023  RH  087%=      5-min Rain = 0
KME1 131143Z 19004KT M00/M02 A3022 RMK A01 T10041022  RH  087%=      5-min Rain = 0
KME1 131144Z 19004KT M00/M02 A3022 RMK A01 T10041021  RH  088%=      5-min Rain = 0
KME1 131145Z 19004KT M00/M02 A3022 RMK A01 T10041021  RH  088%=      5-min Rain = 0
KME1 131146Z 19004KT M00/M02 A3023 RMK A01 T10041021  RH  088%=      5-min Rain = 0
KME1 131147Z 19004KT M00/M02 A3023 RMK A01 T10041021  RH  088%=      5-min Rain = 0
KME1 131148Z 18004KT M00/M02 A3023 RMK A01 T10041021  RH  089%=      5-min Rain = 0
KME1 131149Z 18004KT M00/M02 A3023 RMK A01 T10041021  RH  088%=      5-min Rain = 0
KME1 131150Z 18004KT M00/M02 A3023 RMK A01 T10041021  RH  088%=      5-min Rain = 0
KME1 131151Z 18004KT M00/M02 A3023 RMK A01 T10041021  RH  089%=      5-min Rain = 0
KME1 131152Z 18004KT M00/M02 A3023 RMK A01 T10041021  RH  088%=      5-min Rain = 0
KME1 131153Z 18005KT M01/M02 A3023 RMK A01 T10051022  RH  088%=      5-min Rain = 0
KME1 131154Z 18006KT M01/M02 A3023 RMK A01 T10051021  RH  089%=      5-min Rain = 0
KME1 131155Z 18004KT M00/M02 A3023 RMK A01 T10041021  RH  089%=      5-min Rain = 0
KME1 131156Z 18004KT M01/M02 A3023 RMK A01 T10051022  RH  088%=      5-min Rain = 0
KME1 131157Z 17005KT M01/M02 A3023 RMK A01 T10051023  RH  088%=      5-min Rain = 0
KME1 131158Z 18005KT M01/M02 A3023 RMK A01 T10061022  RH  089%=      5-min Rain = 0
KME1 131159Z 17005KT M01/M02 A3023 RMK A01 T10061022  RH  089%=      5-min Rain = 0
KME1 131200Z 17005KT M01/M02 A3023 RMK A01 T10061022  RH  089%=      5-min Rain = 0
KME1 131201Z 17004KT M01/M02 A3023 RMK A01 T10061022  RH  089%=      5-min Rain = 0
KME1 131202Z 17005KT M01/M02 A3023 RMK A01 T10061021  RH  090%=      5-min Rain = 0
KME1 131203Z 17005KT M01/M02 A3023 RMK A01 T10061022  RH  089%=      5-min Rain = 0
KME1 131204Z 17005KT M01/M02 A3023 RMK A01 T10061022  RH  089%=      5-min Rain = 0
KME1 131205Z 18005KT M01/M02 A3023 RMK A01 T10061022  RH  089%=      5-min Rain = 0
KME1 131206Z 18005KT M01/M02 A3023 RMK A01 T10071022  RH  089%=      5-min Rain = 0
KME1 131207Z 18005KT M01/M02 A3023 RMK A01 T10071022  RH  090%=      5-min Rain = 0
KME1 131208Z 18006KT M01/M02 A3023 RMK A01 T10081023  RH  090%=      5-min Rain = 0
KME1 131209Z 18006KT M01/M02 A3023 RMK A01 T10091024  RH  090%=      5-min Rain = 0
KME1 131210Z 18006KT M01/M02 A3023 RMK A01 T10091022  RH  091%=      5-min Rain = 0
KME1 131211Z 18004KT M01/M02 A3023 RMK A01 T10081021  RH  091%=      5-min Rain = 0
KME1 131212Z 18006KT M01/M02 A3023 RMK A01 T10081022  RH  090%=      5-min Rain = 0
KME1 131213Z 18007KT M01/M02 A3023 RMK A01 T10081022  RH  091%=      5-min Rain = 0
KME1 131214Z 18006KT M01/M02 A3023 RMK A01 T10091022  RH  090%=      5-min Rain = 0
KME1 131215Z 18006KT M01/M02 A3023 RMK A01 T10091023  RH  090%=      5-min Rain = 0
KME1 131216Z 17007KT M01/M02 A3023 RMK A01 T10091022  RH  091%=      5-min Rain = 0
KME1 131217Z 18006KT M01/M02 A3023 RMK A01 T10091021  RH  092%=      5-min Rain = 0
KME1 131218Z 18006KT M01/M02 A3023 RMK A01 T10091021  RH  092%=      5-min Rain = 0
KME1 131219Z 18006KT M01/M02 A3023 RMK A01 T10091022  RH  091%=      5-min Rain = 0
KME1 131220Z 18006KT M01/M02 A3023 RMK A01 T10101022  RH  091%=      5-min Rain = 0
KME1 131221Z 18005KT M01/M02 A3023 RMK A01 T10091020  RH  093%=      5-min Rain = 0
KME1 131222Z 18005KT M01/M02 A3023 RMK A01 T10091021  RH  092%=      5-min Rain = 0
KME1 131223Z 18005KT M01/M02 A3023 RMK A01 T10091021  RH  092%=      5-min Rain = 0
KME1 131224Z 17004KT M01/M02 A3023 RMK A01 T10091020  RH  092%=      5-min Rain = 0
KME1 131225Z 18003KT M01/M02 A3023 RMK A01 T10091020  RH  092%=      5-min Rain = 0
KME1 131226Z 18004KT M01/M02 A3023 RMK A01 T10091020  RH  092%=      5-min Rain = 0
KME1 131227Z 19003KT M01/M02 A3023 RMK A01 T10091021  RH  092%=      5-min Rain = 0
KME1 131228Z 17004KT M01/M02 A3022 RMK A01 T10091020  RH  092%=      5-min Rain = 0
KME1 131229Z 18004KT M01/M02 A3022 RMK A01 T10091022  RH  091%=      5-min Rain = 0
KME1 131230Z 19003KT M01/M02 A3022 RMK A01 T10101022  RH  091%=      5-min Rain = 0
KME1 131231Z 19003KT M01/M02 A3022 RMK A01 T10111024  RH  091%=      5-min Rain = 0
KME1 131232Z 18003KT M01/M02 A3022 RMK A01 T10111023  RH  092%=      5-min Rain = 0
KME1 131233Z 19004KT M01/M02 A3022 RMK A01 T10111022  RH  092%=      5-min Rain = 0
KME1 131234Z 19004KT M01/M02 A3022 RMK A01 T10121022  RH  093%=      5-min Rain = 0
KME1 131235Z 19004KT M01/M02 A3022 RMK A01 T10121021  RH  093%=      5-min Rain = 0
KME1 131236Z 19004KT M01/M02 A3022 RMK A01 T10111022  RH  093%=      5-min Rain = 0
KME1 131237Z 19005KT M01/M02 A3022 RMK A01 T10121023  RH  092%=      5-min Rain = 0
KME1 131238Z 19006KT M01/M02 A3022 RMK A01 T10131024  RH  092%=      5-min Rain = 0
KME1 131239Z 20006KT M01/M02 A3022 RMK A01 T10141023  RH  093%=      5-min Rain = 0
KME1 131240Z 19006KT M01/M02 A3022 RMK A01 T10131021  RH  094%=      5-min Rain = 0
KME1 131241Z 19006KT M01/M02 A3022 RMK A01 T10131021  RH  094%=      5-min Rain = 0
KME1 131242Z 19006KT M01/M02 A3022 RMK A01 T10131024  RH  093%=      5-min Rain = 0
KME1 131243Z 19007KT M02/M03 A3022 RMK A01 T10161026  RH  093%=      5-min Rain = 0
KME1 131244Z 19006KT M02/M02 A3022 RMK A01 T10161024  RH  095%=      5-min Rain = 0
KME1 131245Z 19007KT M02/M02 A3022 RMK A01 T10161023  RH  095%=      5-min Rain = 0
KME1 131246Z 19007KT M02/M02 A3022 RMK A01 T10161023  RH  095%=      5-min Rain = 0
KME1 131247Z 19007KT M02/M02 A3022 RMK A01 T10161022  RH  096%=      5-min Rain = 0
KME1 131248Z 19007KT M02/M02 A3022 RMK A01 T10171023  RH  095%=      5-min Rain = 0
KME1 131249Z 18006KT M02/M03 A3022 RMK A01 T10181027  RH  094%=      5-min Rain = 0
KME1 131250Z 19007KT M02/M03 A3022 RMK A01 T10201026  RH  095%=      5-min Rain = 0
KME1 131251Z 19007KT M02/M02 A3022 RMK A01 T10191022  RH  098%=      5-min Rain = 0
KME1 131252Z 19007KT M02/M02 A3022 RMK A01 T10181021  RH  098%=      5-min Rain = 0
KME1 131253Z 19006KT M02/M02 A3022 RMK A01 T10181021  RH  098%=      5-min Rain = 0
KME1 131254Z 19007KT M02/M02 A3022 RMK A01 T10181022  RH  097%=      5-min Rain = 0
KME1 131255Z 19006KT M02/M02 A3021 RMK A01 T10181022  RH  097%=      5-min Rain = 0
KME1 131256Z 19007KT M02/M02 A3021 RMK A01 T10181023  RH  097%=      5-min Rain = 0
KME1 131257Z 19006KT M02/M02 A3021 RMK A01 T10191023  RH  097%=      5-min Rain = 0
KME1 131258Z 19006KT M02/M02 A3021 RMK A01 T10191022  RH  098%=      5-min Rain = 0
KME1 131259Z 19007KT M02/M02 A3021 RMK A01 T10191023  RH  097%=      5-min Rain = 0
KME1 131300Z 19007KT M02/M03 A3021 RMK A01 T10201025  RH  097%=      5-min Rain = 0
KME1 131301Z 19007KT M02/M02 A3021 RMK A01 T10211024  RH  098%=      5-min Rain = 0
KME1 131302Z 19007KT M02/M02 A3021 RMK A01 T10221024  RH  098%=      5-min Rain = 0
KME1 131303Z 19006KT M02/M03 A3021 RMK A01 T10221025  RH  098%=      5-min Rain = 0
KME1 131304Z 19006KT M02/M03 A3021 RMK A01 T10231026  RH  098%=      5-min Rain = 0
KME1 131305Z 19006KT M02/M03 A3021 RMK A01 T10241026  RH  099%=      5-min Rain = 0
KME1 131306Z 19006KT M03/M03 A3021 RMK A01 T10251027  RH  099%=      5-min Rain = 0
KME1 131307Z 19006KT M03/M03 A3021 RMK A01 T10261027  RH  100%=      5-min Rain = 0
KME1 131308Z 19006KT M03/M03 A3021 RMK A01 T10261026  RH  100%=      5-min Rain = 0
KME1 131309Z 20006KT M03/M03 A3021 RMK A01 T10271027  RH  100%=      5-min Rain = 0
KME1 131310Z 20007KT M03/M03 A3021 RMK A01 T10261026  RH  100%=      5-min Rain = 0
KME1 131311Z 20007KT M02/M02 A3021 RMK A01 T10241024  RH  100%=      5-min Rain = 0
KME1 131312Z 20007KT M02/M02 A3021 RMK A01 T10241024  RH  100%=      5-min Rain = 0
KME1 131313Z 20007KT M02/M02 A3021 RMK A01 T10231023  RH  100%=      5-min Rain = 0
KME1 131314Z 19007KT M02/M02 A302 RMK A01 T10231023  RH  100%=      5-min Rain = 0
KME1 131315Z 19007KT M02/M02 A302 RMK A01 T10231023  RH  100%=      5-min Rain = 0
KME1 131316Z 19006KT M02/M02 A302 RMK A01 T10221022  RH  100%=      5-min Rain = 0
KME1 131317Z 19005KT M02/M02 A302 RMK A01 T10221022  RH  100%=      5-min Rain = 0
KME1 131318Z 18005KT M02/M02 A302 RMK A01 T10221023  RH  100%=      5-min Rain = 0
KME1 131319Z 19006KT M02/M02 A302 RMK A01 T10231024  RH  100%=      5-min Rain = 0
KME1 131320Z 19006KT M02/M02 A302 RMK A01 T10231024  RH  100%=      5-min Rain = 0
KME1 131321Z 19006KT M02/M03 A302 RMK A01 T10241025  RH  100%=      5-min Rain = 0
KME1 131322Z 19006KT M02/M02 A302 RMK A01 T10241024  RH  100%=      5-min Rain = 0
KME1 131323Z 19006KT M03/M03 A302 RMK A01 T10251025  RH  100%=      5-min Rain = 0
KME1 131324Z 19006KT M03/M03 A302 RMK A01 T10251025  RH  100%=      5-min Rain = 0
KME1 131325Z 19006KT M03/M03 A302 RMK A01 T10251025  RH  100%=      5-min Rain = 0
KME1 131326Z 19006KT M03/M03 A302 RMK A01 T10261026  RH  100%=      5-min Rain = 0
KME1 131327Z 19005KT M03/M03 A302 RMK A01 T10261026  RH  100%=      5-min Rain = 0
KME1 131328Z 19004KT M03/M03 A302 RMK A01 T10261026  RH  100%=      5-min Rain = 0
KME1 131329Z 19004KT M03/M03 A302 RMK A01 T10271027  RH  100%=      5-min Rain = 0
KME1 131330Z 19005KT M03/M03 A302 RMK A01 T10271027  RH  100%=      5-min Rain = 0
KME1 131331Z 19004KT M03/M03 A302 RMK A01 T10281028  RH  100%=      5-min Rain = 0
KME1 131332Z 19004KT M03/M03 A302 RMK A01 T10281028  RH  100%=      5-min Rain = 0
KME1 131333Z 19004KT M03/M03 A302 RMK A01 T10281029  RH  100%=      5-min Rain = 0
KME1 131334Z 19005KT M03/M03 A302 RMK A01 T10291029  RH  100%=      5-min Rain = 0
KME1 131335Z 19004KT M03/M03 A302 RMK A01 T10281028  RH  100%=      5-min Rain = 0
KME1 131336Z 18005KT M03/M03 A302 RMK A01 T10281028  RH  100%=      5-min Rain = 0
KME1 131337Z 19005KT M03/M03 A302 RMK A01 T10281028  RH  100%=      5-min Rain = 0
KME1 131338Z 18005KT M03/M03 A302 RMK A01 T10291029  RH  100%=      5-min Rain = 0
KME1 131339Z 18006KT M03/M03 A302 RMK A01 T10291029  RH  100%=      5-min Rain = 0
KME1 131340Z 18006KT M03/M03 A302 RMK A01 T10291029  RH  100%=      5-min Rain = 0
KME1 131341Z 18006KT M03/M03 A302 RMK A01 T10281029  RH  100%=      5-min Rain = 0
KME1 131342Z 18006KT M03/M03 A302 RMK A01 T10281029  RH  100%=      5-min Rain = 0
KME1 131343Z 18006KT M03/M03 A302 RMK A01 T10281028  RH  100%=      5-min Rain = 0
KME1 131344Z 19006KT M03/M03 A302 RMK A01 T10271028  RH  100%=      5-min Rain = 0
KME1 131345Z 19006KT M03/M03 A302 RMK A01 T10271028  RH  100%=      5-min Rain = 0
KME1 131346Z 19007KT M03/M03 A302 RMK A01 T10281028  RH  100%=      5-min Rain = 0
KME1 131347Z 19006KT M03/M03 A302 RMK A01 T10261027  RH  100%=      5-min Rain = 0
KME1 131348Z 19006KT M03/M03 A302 RMK A01 T10261026  RH  100%=      5-min Rain = 0
KME1 131349Z 19007KT M03/M03 A302 RMK A01 T10261026  RH  100%=      5-min Rain = 0
KME1 131350Z 19007KT M02/M03 A3019 RMK A01 T10241025  RH  100%=      5-min Rain = 0
KME1 131351Z 19007KT M02/M02 A3019 RMK A01 T10231023  RH  100%=      5-min Rain = 0
KME1 131352Z 19007KT M02/M02 A3019 RMK A01 T10221022  RH  100%=      5-min Rain = 0
KME1 131353Z 19007KT M02/M02 A3019 RMK A01 T10221022  RH  100%=      5-min Rain = 0
KME1 131354Z 19009KT M02/M02 A3019 RMK A01 T10211021  RH  100%=      5-min Rain = 0
KME1 131355Z 20008KT M02/M02 A3019 RMK A01 T10211021  RH  100%=      5-min Rain = 0
KME1 131356Z 20008KT M02/M02 A3019 RMK A01 T10201021  RH  100%=      5-min Rain = 0
KME1 131357Z 19008KT M02/M02 A3019 RMK A01 T10201021  RH  099%=      5-min Rain = 0
KME1 131358Z 19007KT M02/M02 A3019 RMK A01 T10191021  RH  098%=      5-min Rain = 0
KME1 131359Z 19008KT M02/M02 A3019 RMK A01 T10191022  RH  098%=      5-min Rain = 0
KME1 131400Z 19007KT M02/M02 A3019 RMK A01 T10191022  RH  097%=      5-min Rain = 0
KME1 131401Z 19008KT M02/M02 A3019 RMK A01 T10191023  RH  097%=      5-min Rain = 0
KME1 131402Z 19008KT M02/M02 A3019 RMK A01 T10181022  RH  097%=      5-min Rain = 0
KME1 131403Z 19008KT M02/M02 A3019 RMK A01 T10181022  RH  097%=      5-min Rain = 0
KME1 131404Z 19008KT M02/M02 A3019 RMK A01 T10181023  RH  096%=      5-min Rain = 0
KME1 131405Z 19007KT M02/M02 A3019 RMK A01 T10171023  RH  096%=      5-min Rain = 0
KME1 131406Z 19007KT M02/M02 A3019 RMK A01 T10171023  RH  096%=      5-min Rain = 0
KME1 131407Z 19007KT M02/M02 A3019 RMK A01 T10171023  RH  096%=      5-min Rain = 0
KME1 131408Z 19007KT M02/M02 A3019 RMK A01 T10171024  RH  095%=      5-min Rain = 0
KME1 131409Z 19007KT M02/M02 A3019 RMK A01 T10171024  RH  095%=      5-min Rain = 0
KME1 131410Z 19007KT M02/M02 A3019 RMK A01 T10171024  RH  095%=      5-min Rain = 0
KME1 131411Z 19006KT M02/M02 A3019 RMK A01 T10161024  RH  095%=      5-min Rain = 0
KME1 131412Z 19007KT M02/M02 A3019 RMK A01 T10161024  RH  094%=      5-min Rain = 0
KME1 131413Z 19007KT M02/M02 A3019 RMK A01 T10161024  RH  094%=      5-min Rain = 0
KME1 131414Z 19007KT M02/M02 A3019 RMK A01 T10151024  RH  094%=      5-min Rain = 0
KME1 131415Z 20006KT M01/M02 A3019 RMK A01 T10141023  RH  094%=      5-min Rain = 0
KME1 131416Z 19006KT M01/M02 A3019 RMK A01 T10141023  RH  094%=      5-min Rain = 0
KME1 131417Z 19007KT M01/M02 A3019 RMK A01 T10131023  RH  093%=      5-min Rain = 0
KME1 131418Z 20007KT M01/M02 A3019 RMK A01 T10131023  RH  093%=      5-min Rain = 0
KME1 131419Z 20007KT M01/M02 A3019 RMK A01 T10121023  RH  092%=      5-min Rain = 0
KME1 131420Z 20006KT M01/M02 A3019 RMK A01 T10111023  RH  092%=      5-min Rain = 0
KME1 131421Z 20006KT M01/M02 A3019 RMK A01 T10111023  RH  092%=      5-min Rain = 0
KME1 131422Z 20006KT M01/M02 A3019 RMK A01 T10101023  RH  091%=      5-min Rain = 0
KME1 131423Z 20005KT M01/M02 A3019 RMK A01 T10101023  RH  091%=      5-min Rain = 0
KME1 131424Z 20005KT M01/M02 A3019 RMK A01 T10091023  RH  091%=      5-min Rain = 0
KME1 131425Z 20006KT M01/M02 A3019 RMK A01 T10091022  RH  091%=      5-min Rain = 0
KME1 131426Z 20005KT M01/M02 A3019 RMK A01 T10081022  RH  090%=      5-min Rain = 0
KME1 131427Z 20006KT M01/M02 A3019 RMK A01 T10081022  RH  090%=      5-min Rain = 0
KME1 131428Z 20006KT M01/M02 A3019 RMK A01 T10071022  RH  090%=      5-min Rain = 0
KME1 131429Z 20004KT M01/M02 A3019 RMK A01 T10061022  RH  090%=      5-min Rain = 0
KME1 131430Z 20005KT M01/M02 A302 RMK A01 T10051021  RH  089%=      5-min Rain = 0
KME1 131431Z 20004KT M01/M02 A302 RMK A01 T10051021  RH  089%=      5-min Rain = 0
KME1 131432Z 20005KT M00/M02 A302 RMK A01 T10041021  RH  088%=      5-min Rain = 0
KME1 131433Z 19004KT M00/M02 A302 RMK A01 T10041021  RH  088%=      5-min Rain = 0
KME1 131434Z 20004KT M00/M02 A302 RMK A01 T10031021  RH  088%=      5-min Rain = 0
KME1 131435Z 19004KT M00/M02 A302 RMK A01 T10021020  RH  087%=      5-min Rain = 0
KME1 131436Z 19005KT M00/M02 A3019 RMK A01 T10011021  RH  087%=      5-min Rain = 0
KME1 131437Z 19005KT M00/M02 A3019 RMK A01 T10011021  RH  086%=      5-min Rain = 0
KME1 131438Z 19005KT 00/02 A3019 RMK A01 T00-00-21  RH  086%=      5-min Rain = 0
KME1 131439Z 20006KT 00/M02 A3019 RMK A01 T00011019  RH  086%=      5-min Rain = 0
KME1 131440Z 18005KT 00/M02 A3019 RMK A01 T00021018  RH  086%=      5-min Rain = 0
KME1 131441Z 19004KT 00/M02 A3019 RMK A01 T00031019  RH  085%=      5-min Rain = 0
KME1 131442Z 19005KT 00/M02 A3019 RMK A01 T00031019  RH  085%=      5-min Rain = 0
KME1 131443Z 19005KT 00/M02 A3019 RMK A01 T00041019  RH  085%=      5-min Rain = 0
KME1 131444Z 19006KT 01/M02 A3019 RMK A01 T00051018  RH  084%=      5-min Rain = 0
KME1 131445Z 19005KT 01/M02 A3019 RMK A01 T00061018  RH  084%=      5-min Rain = 0
KME1 131446Z 19005KT 01/M02 A3019 RMK A01 T00071018  RH  084%=      5-min Rain = 0
KME1 131447Z 19006KT 01/M02 A3019 RMK A01 T00071018  RH  083%=      5-min Rain = 0
KME1 131448Z 19007KT 01/M02 A3019 RMK A01 T00071019  RH  083%=      5-min Rain = 0
KME1 131449Z 19006KT 01/M02 A3019 RMK A01 T00081018  RH  083%=      5-min Rain = 0
KME1 131450Z 19007KT 01/M02 A3019 RMK A01 T00091017  RH  083%=      5-min Rain = 0
KME1 131451Z 19006KT 01/M02 A3019 RMK A01 T00101017  RH  082%=      5-min Rain = 0
KME1 131452Z 19006KT 01/M02 A3019 RMK A01 T00101017  RH  082%=      5-min Rain = 0
KME1 131453Z 20007KT 01/M02 A3019 RMK A01 T00111016  RH  082%=      5-min Rain = 0
KME1 131454Z 20006KT 01/M02 A302 RMK A01 T00111017  RH  082%=      5-min Rain = 0
KME1 131455Z 20006KT 01/M02 A302 RMK A01 T00121016  RH  081%=      5-min Rain = 0
KME1 131456Z 20006KT 01/M02 A302 RMK A01 T00131016  RH  081%=      5-min Rain = 0
KME1 131457Z 19006KT 01/M02 A302 RMK A01 T00141015  RH  081%=      5-min Rain = 0
KME1 131458Z 20006KT 02/M01 A302 RMK A01 T00151014  RH  081%=      5-min Rain = 0
KME1 131459Z 19007KT 02/M02 A302 RMK A01 T00161015  RH  080%=      5-min Rain = 0
KME1 131500Z 19007KT 02/M02 A302 RMK A01 T00161016  RH  079%=      5-min Rain = 0
KME1 131501Z 20006KT 02/M02 A302 RMK A01 T00161015  RH  080%=      5-min Rain = 0
KME1 131502Z 20006KT 02/M01 A302 RMK A01 T00171014  RH  080%=      5-min Rain = 0
KME1 131503Z 20006KT 02/M01 A302 RMK A01 T00171014  RH  080%=      5-min Rain = 0
KME1 131504Z 20007KT 02/M01 A302 RMK A01 T00181013  RH  080%=      5-min Rain = 0
KME1 131505Z 20006KT 02/M01 A302 RMK A01 T00181014  RH  079%=      5-min Rain = 0
KME1 131506Z 20006KT 02/M01 A302 RMK A01 T00181014  RH  079%=      5-min Rain = 0
KME1 131507Z 20007KT 02/M01 A302 RMK A01 T00191014  RH  079%=      5-min Rain = 0
KME1 131508Z 19007KT 02/M01 A302 RMK A01 T00191014  RH  079%=      5-min Rain = 0
KME1 131509Z 19006KT 02/M02 A302 RMK A01 T00191015  RH  078%=      5-min Rain = 0
KME1 131510Z 19005KT 02/M02 A302 RMK A01 T00201015  RH  078%=      5-min Rain = 0
KME1 131511Z 19006KT 02/M01 A302 RMK A01 T00201014  RH  078%=      5-min Rain = 0
KME1 131512Z 19006KT 02/M01 A302 RMK A01 T00211013  RH  078%=      5-min Rain = 0
KME1 131513Z 19006KT 02/M01 A302 RMK A01 T00211012  RH  078%=      5-min Rain = 0
KME1 131514Z 19006KT 02/M01 A302 RMK A01 T00221013  RH  078%=      5-min Rain = 0
KME1 131515Z 19006KT 02/M01 A302 RMK A01 T00221013  RH  078%=      5-min Rain = 0
KME1 131516Z 19006KT 02/M01 A302 RMK A01 T00221013  RH  077%=      5-min Rain = 0
KME1 131517Z 18006KT 02/M01 A302 RMK A01 T00221013  RH  077%=      5-min Rain = 0
KME1 131518Z 18006KT 02/M01 A302 RMK A01 T00231011  RH  078%=      5-min Rain = 0
KME1 131519Z 18007KT 02/M01 A302 RMK A01 T00241011  RH  077%=      5-min Rain = 0
KME1 131520Z 18006KT 03/M01 A302 RMK A01 T00251011  RH  077%=      5-min Rain = 0
KME1 131521Z 18007KT 03/M01 A302 RMK A01 T00251011  RH  077%=      5-min Rain = 0
KME1 131522Z 18007KT 03/M01 A302 RMK A01 T00251012  RH  076%=      5-min Rain = 0
KME1 131523Z 18006KT 03/M01 A302 RMK A01 T00251011  RH  077%=      5-min Rain = 0
KME1 131524Z 18006KT 03/M01 A302 RMK A01 T00261009  RH  078%=      5-min Rain = 0
KME1 131525Z 18006KT 03/M01 A302 RMK A01 T00281010  RH  076%=      5-min Rain = 0
KME1 131526Z 18007KT 03/M01 A302 RMK A01 T00281010  RH  076%=      5-min Rain = 0
KME1 131527Z 18006KT 03/M01 A302 RMK A01 T00281011  RH  075%=      5-min Rain = 0
KME1 131528Z 19006KT 03/M01 A302 RMK A01 T00281012  RH  075%=      5-min Rain = 0
KME1 131529Z 18005KT 03/M01 A302 RMK A01 T00291011  RH  075%=      5-min Rain = 0
KME1 131530Z 18006KT 03/M01 A302 RMK A01 T00301008  RH  076%=      5-min Rain = 0
KME1 131531Z 19006KT 03/M01 A302 RMK A01 T00311008  RH  075%=      5-min Rain = 0
KME1 131532Z 18006KT 03/M01 A302 RMK A01 T00321009  RH  075%=      5-min Rain = 0
KME1 131533Z 19006KT 03/M01 A302 RMK A01 T00331008  RH  075%=      5-min Rain = 0
KME1 131534Z 19005KT 03/M01 A302 RMK A01 T00331008  RH  074%=      5-min Rain = 0
KME1 131535Z 19006KT 03/M01 A302 RMK A01 T00341008  RH  074%=      5-min Rain = 0
KME1 131536Z 19007KT 04/M01 A302 RMK A01 T00351007  RH  074%=      5-min Rain = 0
KME1 131537Z 19007KT 04/M01 A302 RMK A01 T00361008  RH  073%=      5-min Rain = 0
KME1 131538Z 19007KT 04/M01 A302 RMK A01 T00371006  RH  074%=      5-min Rain = 0
KME1 131539Z 19007KT 04/M01 A302 RMK A01 T00381006  RH  073%=      5-min Rain = 0
KME1 131540Z 18007KT 04/M01 A302 RMK A01 T00381006  RH  073%=      5-min Rain = 0
KME1 131541Z 19006KT 04/M01 A302 RMK A01 T00401005  RH  073%=      5-min Rain = 0
KME1 131542Z 18008KT 04/M01 A302 RMK A01 T00401005  RH  072%=      5-min Rain = 0
KME1 131543Z 18008KT 04/M01 A302 RMK A01 T00401007  RH  072%=      5-min Rain = 0
KME1 131544Z 19008KT 04/M01 A302 RMK A01 T00391006  RH  072%=      5-min Rain = 0
KME1 131545Z 19008KT 04/M01 A302 RMK A01 T00391006  RH  072%=      5-min Rain = 0
KME1 131546Z 18009KT 04/M01 A3019 RMK A01 T00381007  RH  072%=      5-min Rain = 0
KME1 131547Z 18008KT 04/M01 A3019 RMK A01 T00381006  RH  073%=      5-min Rain = 0
KME1 131548Z 18008KT 04/M01 A3019 RMK A01 T00391007  RH  072%=      5-min Rain = 0
KME1 131549Z 18008KT 04/M01 A3019 RMK A01 T00381008  RH  072%=      5-min Rain = 0
KME1 131550Z 18009KT 04/M01 A3019 RMK A01 T00381007  RH  072%=      5-min Rain = 0
KME1 131551Z 18008KT 04/M01 A3019 RMK A01 T00391008  RH  072%=      5-min Rain = 0
KME1 131552Z 19007KT 04/M01 A302 RMK A01 T00391007  RH  072%=      5-min Rain = 0
KME1 131553Z 18007KT 04/M01 A302 RMK A01 T00401007  RH  071%=      5-min Rain = 0
KME1 131554Z 18006KT 04/M01 A302 RMK A01 T00401005  RH  072%=      5-min Rain = 0
KME1 131555Z 18006KT 04/M00 A302 RMK A01 T00421004  RH  072%=      5-min Rain = 0
KME1 131556Z 18006KT 04/M00 A302 RMK A01 T00441003  RH  072%=      5-min Rain = 0
KME1 131557Z 18005KT 05/M00 A3019 RMK A01 T00451001  RH  072%=      5-min Rain = 0
KME1 131558Z 18006KT 05/00 A3019 RMK A01 T00480002  RH  072%=      5-min Rain = 0
KME1 131559Z 18006KT 05/00 A3019 RMK A01 T00500003  RH  072%=      5-min Rain = 0
KME1 131600Z 17007KT 05/00 A3019 RMK A01 T00510001  RH  070%=      5-min Rain = 0
KME1 131601Z 18008KT 05/00 A3019 RMK A01 T00510000  RH  069%=      5-min Rain = 0
KME1 131602Z 17007KT 05/00 A3019 RMK A01 T005100-0  RH  069%=      5-min Rain = 0
KME1 131603Z 18007KT 05/00 A3019 RMK A01 T00520001  RH  070%=      5-min Rain = 0
KME1 131604Z 17008KT 05/M00 A3019 RMK A01 T00521001  RH  069%=      5-min Rain = 0
KME1 131605Z 18008KT 05/M00 A3019 RMK A01 T00531001  RH  068%=      5-min Rain = 0
KME1 131606Z 18007KT 05/M00 A3019 RMK A01 T00531001  RH  068%=      5-min Rain = 0
KME1 131607Z 18007KT 05/00 A3019 RMK A01 T00540000  RH  068%=      5-min Rain = 0
KME1 131608Z 17006KT 06/00 A3019 RMK A01 T00560003  RH  069%=      5-min Rain = 0
KME1 131609Z 18007KT 06/00 A3019 RMK A01 T00580003  RH  068%=      5-min Rain = 0
KME1 131610Z 19006KT 06/00 A3019 RMK A01 T00590000  RH  066%=      5-min Rain = 0
KME1 131611Z 18006KT 06/00 A3019 RMK A01 T00600001  RH  066%=      5-min Rain = 0
KME1 131612Z 19007KT 06/00 A3019 RMK A01 T00630003  RH  065%=      5-min Rain = 0
KME1 131613Z 18006KT 07/00 A3019 RMK A01 T00650002  RH  064%=      5-min Rain = 0
KME1 131614Z 19007KT 07/00 A3019 RMK A01 T00660002  RH  064%=      5-min Rain = 0
KME1 131615Z 19008KT 07/00 A3019 RMK A01 T00670000  RH  062%=      5-min Rain = 0
KME1 131616Z 19006KT 07/00 A3019 RMK A01 T00680001  RH  062%=      5-min Rain = 0
KME1 131617Z 19008KT 07/00 A3018 RMK A01 T00700002  RH  062%=      5-min Rain = 0
KME1 131618Z 19007KT 07/00 A3018 RMK A01 T00710002  RH  061%=      5-min Rain = 0
KME1 131619Z 19009KT 07/00 A3018 RMK A01 T007200-0  RH  060%=      5-min Rain = 0
KME1 131620Z 20009KT 07/M00 A3018 RMK A01 T00711001  RH  060%=      5-min Rain = 0
KME1 131621Z 20009KT 07/00 A3018 RMK A01 T00730001  RH  060%=      5-min Rain = 0
KME1 131622Z 20010KT 07/M00 A3018 RMK A01 T00741001  RH  059%=      5-min Rain = 0
KME1 131623Z 20009KT 08/M00 A3018 RMK A01 T00751002  RH  058%=      5-min Rain = 0
KME1 131624Z 21008KT 08/M00 A3019 RMK A01 T00761004  RH  057%=      5-min Rain = 0
KME1 131625Z 21008KT 08/00 A3019 RMK A01 T00790002  RH  058%=      5-min Rain = 0
KME1 131626Z 21010KT 08/M00 A3019 RMK A01 T00821004  RH  054%=      5-min Rain = 0
KME1 131627Z 21010KT 08/M01 A3019 RMK A01 T00831008  RH  053%=      5-min Rain = 0
KME1 131628Z 21010KT 08/M01 A3019 RMK A01 T00831008  RH  052%=      5-min Rain = 0
KME1 131629Z 21010KT 09/M01 A3019 RMK A01 T00851007  RH  052%=      5-min Rain = 0
KME1 131630Z 21010KT 09/M01 A3019 RMK A01 T00861007  RH  052%=      5-min Rain = 0
KME1 131631Z 21010KT 09/M01 A3019 RMK A01 T00871009  RH  051%=      5-min Rain = 0
KME1 131632Z 21010KT 09/M01 A3019 RMK A01 T00871009  RH  051%=      5-min Rain = 0
KME1 131633Z 21010KT 09/M01 A3019 RMK A01 T00871009  RH  051%=      5-min Rain = 0
KME1 131634Z 21010KT 09/M01 A3019 RMK A01 T00891008  RH  051%=      5-min Rain = 0
KME1 131635Z 21009KT 09/M01 A3019 RMK A01 T00901010  RH  050%=      5-min Rain = 0
KME1 131636Z 22009KT 09/M01 A3019 RMK A01 T00901009  RH  050%=      5-min Rain = 0
KME1 131637Z 22010KT 09/M01 A3019 RMK A01 T00921008  RH  049%=      5-min Rain = 0
KME1 131638Z 21010KT 09/M01 A3019 RMK A01 T00921011  RH  048%=      5-min Rain = 0
KME1 131639Z 21010KT 09/M01 A3019 RMK A01 T00921010  RH  049%=      5-min Rain = 0
KME1 131640Z 20010KT 09/M01 A3019 RMK A01 T00931009  RH  049%=      5-min Rain = 0
KME1 131641Z 20010KT 09/M01 A3019 RMK A01 T00941010  RH  048%=      5-min Rain = 0
KME1 131642Z 20011KT 09/M01 A3019 RMK A01 T00941010  RH  048%=      5-min Rain = 0
KME1 131643Z 21010KT 09/M01 A3019 RMK A01 T00941011  RH  048%=      5-min Rain = 0
KME1 131644Z 20009KT 10/M01 A3019 RMK A01 T00951012  RH  047%=      5-min Rain = 0
KME1 131645Z 21007KT 10/M01 A3019 RMK A01 T00961008  RH  048%=      5-min Rain = 0
KME1 131646Z 21007KT 10/M01 A3019 RMK A01 T00991006  RH  048%=      5-min Rain = 0
KME1 131647Z 20008KT 10/M01 A3019 RMK A01 T01001009  RH  047%=      5-min Rain = 0
KME1 131648Z 20008KT 10/M01 A3019 RMK A01 T01001010  RH  046%=      5-min Rain = 0
KME1 131649Z 21010KT 10/M01 A3018 RMK A01 T01011008  RH  047%=      5-min Rain = 0
KME1 131650Z 22009KT 10/M01 A3018 RMK A01 T01021010  RH  046%=      5-min Rain = 0
KME1 131651Z 24010KT 11/M01 A3018 RMK A01 T01051012  RH  044%=      5-min Rain = 0
KME1 131652Z 22007KT 11/M02 A3018 RMK A01 T01061015  RH  043%=      5-min Rain = 0
KME1 131653Z 22008KT 11/M01 A3018 RMK A01 T01071011  RH  044%=      5-min Rain = 0
KME1 131654Z 23008KT 11/M01 A3018 RMK A01 T01091009  RH  044%=      5-min Rain = 0
KME1 131655Z 23009KT 11/M01 A3018 RMK A01 T01111014  RH  042%=      5-min Rain = 0
KME1 131656Z 24010KT 11/M02 A3018 RMK A01 T01121016  RH  041%=      5-min Rain = 0
KME1 131657Z 23009KT 11/M02 A3018 RMK A01 T01121017  RH  040%=      5-min Rain = 0
KME1 131658Z 24009KT 11/M02 A3018 RMK A01 T01131015  RH  041%=      5-min Rain = 0
KME1 131659Z 24013KT 11/M02 A3018 RMK A01 T01141016  RH  041%=      5-min Rain = 0
KME1 131700Z 24010KT 11/M02 A3018 RMK A01 T01141019  RH  039%=      5-min Rain = 0
KME1 131701Z 22010KT 11/M02 A3018 RMK A01 T01141020  RH  039%=      5-min Rain = 0
KME1 131702Z 23009KT 12/M02 A3018 RMK A01 T01151017  RH  040%=      5-min Rain = 0
KME1 131703Z 24007KT 12/M02 A3018 RMK A01 T01171016  RH  040%=      5-min Rain = 0
KME1 131704Z 24008KT 12/M01 A3018 RMK A01 T01191011  RH  041%=      5-min Rain = 0
KME1 131705Z 24008KT 12/M02 A3018 RMK A01 T01191019  RH  038%=      5-min Rain = 0
KME1 131706Z 23007KT 12/M02 A3018 RMK A01 T01181017  RH  039%=      5-min Rain = 0
KME1 131707Z 24009KT 12/M02 A3017 RMK A01 T01201015  RH  039%=      5-min Rain = 0
KME1 131708Z 24009KT 12/M02 A3017 RMK A01 T01201019  RH  038%=      5-min Rain = 0
KME1 131709Z 25007KT 12/M02 A3017 RMK A01 T01201018  RH  038%=      5-min Rain = 0
KME1 131710Z 22007KT 12/M02 A3017 RMK A01 T01211020  RH  037%=      5-min Rain = 0
KME1 131711Z 24007KT 12/M02 A3017 RMK A01 T01211019  RH  037%=      5-min Rain = 0
KME1 131712Z 24010KT 12/M02 A3017 RMK A01 T01231020  RH  037%=      5-min Rain = 0
KME1 131713Z 24010KT 12/M02 A3017 RMK A01 T01231024  RH  036%=      5-min Rain = 0
KME1 131714Z 24010KT 12/M02 A3017 RMK A01 T01231022  RH  036%=      5-min Rain = 0
KME1 131715Z 25009KT 12/M03 A3017 RMK A01 T01231025  RH  036%=      5-min Rain = 0
KME1 131716Z 25007KT 12/M02 A3017 RMK A01 T01221024  RH  036%=      5-min Rain = 0
KME1 131717Z 25008KT 12/M02 A3017 RMK A01 T01221023  RH  036%=      5-min Rain = 0
KME1 131718Z 23010KT 12/M02 A3017 RMK A01 T01241021  RH  036%=      5-min Rain = 0
KME1 131719Z 25009KT 13/M02 A3017 RMK A01 T01271021  RH  036%=      5-min Rain = 0
KME1 131720Z 23007KT 13/M02 A3017 RMK A01 T01281020  RH  036%=      5-min Rain = 0
KME1 131721Z 23007G12KT 13/M02 A3017 RMK A01 T01301024  RH  034%=      5-min Rain = 0
KME1 131722Z 24009KT 13/M02 A3017 RMK A01 T01311022  RH  034%=      5-min Rain = 0
KME1 131723Z 24010KT 13/M03 A3016 RMK A01 T01331025  RH  034%=      5-min Rain = 0
KME1 131724Z 24011KT 13/M02 A3016 RMK A01 T01341024  RH  033%=      5-min Rain = 0
KME1 131725Z 24009KT 14/M03 A3016 RMK A01 T01351029  RH  032%=      5-min Rain = 0
KME1 131726Z 24008KT 14/M03 A3016 RMK A01 T01361027  RH  032%=      5-min Rain = 0
KME1 131727Z 23006KT 14/M03 A3016 RMK A01 T01361032  RH  031%=      5-min Rain = 0
KME1 131728Z 23006KT 14/M03 A3016 RMK A01 T01371029  RH  032%=      5-min Rain = 0
KME1 131729Z 23005KT 14/M02 A3016 RMK A01 T01381024  RH  033%=      5-min Rain = 0
KME1 131730Z 23009KT 14/M02 A3016 RMK A01 T01401020  RH  033%=      5-min Rain = 0
KME1 131731Z 24008KT 14/M03 A3016 RMK A01 T01401025  RH  032%=      5-min Rain = 0
KME1 131732Z 23007KT 14/M03 A3016 RMK A01 T01401033  RH  030%=      5-min Rain = 0
KME1 131733Z 22005KT 14/M03 A3015 RMK A01 T01391031  RH  031%=      5-min Rain = 0
KME1 131734Z 22010G16KT 14/M03 A3015 RMK A01 T01391028  RH  031%=      5-min Rain = 0
KME1 131735Z 23010KT 14/M04 A3015 RMK A01 T01401038  RH  029%=      5-min Rain = 0
KME1 131736Z 25013KT 14/M04 A3015 RMK A01 T01401040  RH  029%=      5-min Rain = 0
KME1 131737Z 27011KT 14/M05 A3015 RMK A01 T01401045  RH  027%=      5-min Rain = 0
KME1 131738Z 28008KT 14/M04 A3015 RMK A01 T01391041  RH  028%=      5-min Rain = 0
KME1 131739Z 26010KT 14/M03 A3015 RMK A01 T01401034  RH  030%=      5-min Rain = 0
KME1 131740Z 24007KT 14/M03 A3015 RMK A01 T01411032  RH  030%=      5-min Rain = 0
KME1 131741Z 25007KT 14/M03 A3015 RMK A01 T01421032  RH  030%=      5-min Rain = 0
KME1 131742Z 25010G16KT 14/M03 A3015 RMK A01 T01441031  RH  030%=      5-min Rain = 0
KME1 131743Z 26013G18KT 14/M04 A3015 RMK A01 T01441041  RH  027%=      5-min Rain = 0
KME1 131744Z 27012KT 14/M04 A3015 RMK A01 T01431043  RH  027%=      5-min Rain = 0
KME1 131745Z 26012KT 14/M04 A3015 RMK A01 T01421041  RH  028%=      5-min Rain = 0
KME1 131746Z 27010KT 14/M05 A3015 RMK A01 T01421046  RH  027%=      5-min Rain = 0
KME1 131747Z 27010KT 14/M05 A3015 RMK A01 T01411046  RH  027%=      5-min Rain = 0
KME1 131748Z 27010KT 14/M04 A3015 RMK A01 T01411043  RH  028%=      5-min Rain = 0
KME1 131749Z 26010KT 14/M04 A3015 RMK A01 T01421043  RH  028%=      5-min Rain = 0
KME1 131750Z 27009KT 14/M04 A3015 RMK A01 T01431040  RH  028%=      5-min Rain = 0
KME1 131751Z 27012KT 14/M04 A3015 RMK A01 T01441040  RH  028%=      5-min Rain = 0
KME1 131752Z 27012KT 14/M04 A3014 RMK A01 T01441042  RH  027%=      5-min Rain = 0
KME1 131753Z 27011KT 14/M04 A3014 RMK A01 T01441044  RH  027%=      5-min Rain = 0
KME1 131754Z 27011KT 14/M04 A3014 RMK A01 T01441043  RH  027%=      5-min Rain = 0
KME1 131755Z 25008KT 15/M04 A3014 RMK A01 T01451036  RH  028%=      5-min Rain = 0
KME1 131756Z 24007KT 15/M03 A3014 RMK A01 T01461033  RH  029%=      5-min Rain = 0
KME1 131757Z 24007KT 15/M03 A3014 RMK A01 T01491027  RH  030%=      5-min Rain = 0
KME1 131758Z 24011KT 15/M03 A3014 RMK A01 T01511031  RH  028%=      5-min Rain = 0
KME1 131759Z 24009KT 15/M04 A3014 RMK A01 T01511035  RH  027%=      5-min Rain = 0
KME1 131800Z 24011KT 15/M04 A3014 RMK A01 T01511036  RH  027%=      5-min Rain = 0
KME1 131801Z 25007KT 15/M04 A3014 RMK A01 T01501038  RH  027%=      5-min Rain = 0
KME1 131802Z 25013KT 15/M04 A3014 RMK A01 T01501035  RH  028%=      5-min Rain = 0
KME1 131803Z 27013KT 15/M04 A3014 RMK A01 T01491042  RH  026%=      5-min Rain = 0
KME1 131804Z 27012KT 15/M05 A3014 RMK A01 T01471045  RH  026%=      5-min Rain = 0
KME1 131805Z 25009KT 15/M04 A3014 RMK A01 T01451043  RH  027%=      5-min Rain = 0
KME1 131806Z 25008KT 15/M03 A3014 RMK A01 T01461034  RH  029%=      5-min Rain = 0
KME1 131807Z 24010KT 15/M03 A3013 RMK A01 T01501027  RH  029%=      5-min Rain = 0
KME1 131808Z 25010KT 15/M03 A3013 RMK A01 T01531031  RH  028%=      5-min Rain = 0
KME1 131809Z 25013KT 15/M03 A3013 RMK A01 T01531032  RH  028%=      5-min Rain = 0
KME1 131810Z 25012KT 15/M04 A3013 RMK A01 T01521040  RH  026%=      5-min Rain = 0
KME1 131811Z 25009KT 15/M04 A3013 RMK A01 T01491041  RH  027%=      5-min Rain = 0
KME1 131812Z 26013KT 15/M04 A3013 RMK A01 T01491037  RH  027%=      5-min Rain = 0
KME1 131813Z 28011KT 15/M04 A3013 RMK A01 T01501041  RH  027%=      5-min Rain = 0
KME1 131814Z 27011KT 15/M04 A3013 RMK A01 T01501040  RH  027%=      5-min Rain = 0
KME1 131815Z 26011KT 15/M04 A3013 RMK A01 T01501039  RH  027%=      5-min Rain = 0
KME1 131816Z 26011KT 15/M04 A3013 RMK A01 T01501039  RH  027%=      5-min Rain = 0
KME1 131817Z 24008G14KT 15/M04 A3012 RMK A01 T01501037  RH  027%=      5-min Rain = 0
KME1 131818Z 25012KT 15/M03 A3012 RMK A01 T01531031  RH  028%=      5-min Rain = 0
KME1 131819Z 25014KT 16/M04 A3012 RMK A01 T01551036  RH  027%=      5-min Rain = 0
KME1 131820Z 25011KT 16/M04 A3012 RMK A01 T01551037  RH  026%=      5-min Rain = 0
KME1 131821Z 25009KT 15/M04 A3012 RMK A01 T01541039  RH  026%=      5-min Rain = 0
KME1 131822Z 24010KT 15/M04 A3012 RMK A01 T01541038  RH  026%=      5-min Rain = 0
KME1 131823Z 23014KT 16/M04 A3012 RMK A01 T01551038  RH  026%=      5-min Rain = 0
KME1 131824Z 25012KT 16/M04 A3012 RMK A01 T01571038  RH  026%=      5-min Rain = 0
KME1 131825Z 24011KT 16/M04 A3012 RMK A01 T01561039  RH  026%=      5-min Rain = 0
KME1 131826Z 24009KT 16/M04 A3012 RMK A01 T01551036  RH  027%=      5-min Rain = 0
KME1 131827Z 24013KT 16/M04 A3012 RMK A01 T01581036  RH  026%=      5-min Rain = 0
KME1 131828Z 25011KT 16/M04 A3011 RMK A01 T01581037  RH  026%=      5-min Rain = 0
KME1 131829Z 25014KT 16/M04 A3011 RMK A01 T01581039  RH  025%=      5-min Rain = 0
KME1 131830Z 25011KT 16/M04 A3011 RMK A01 T01571039  RH  026%=      5-min Rain = 0
KME1 131831Z 24010KT 16/M04 A3011 RMK A01 T01581036  RH  026%=      5-min Rain = 0
KME1 131832Z 24012KT 16/M04 A3011 RMK A01 T01601040  RH  025%=      5-min Rain = 0
KME1 131833Z 24014KT 16/M04 A3011 RMK A01 T01601042  RH  025%=      5-min Rain = 0
KME1 131834Z 24012KT 16/M04 A3011 RMK A01 T01601044  RH  024%=      5-min Rain = 0
KME1 131835Z 23010KT 16/M04 A3011 RMK A01 T01601041  RH  025%=      5-min Rain = 0
KME1 131836Z 25009KT 16/M03 A3011 RMK A01 T01621033  RH  026%=      5-min Rain = 0
KME1 131837Z 24008KT 16/M03 A3011 RMK A01 T01641034  RH  025%=      5-min Rain = 0
KME1 131838Z 25011KT 17/M04 A3011 RMK A01 T01651036  RH  025%=      5-min Rain = 0
KME1 131839Z 25009KT 16/M04 A3011 RMK A01 T01641041  RH  024%=      5-min Rain = 0
KME1 131840Z 25010KT 16/M04 A301 RMK A01 T01631040  RH  025%=      5-min Rain = 0
KME1 131841Z 26011KT 16/M04 A301 RMK A01 T01621044  RH  024%=      5-min Rain = 0
KME1 131842Z 25012KT 16/M04 A301 RMK A01 T01621041  RH  025%=      5-min Rain = 0
KME1 131843Z 25012KT 16/M05 A301 RMK A01 T01611045  RH  024%=      5-min Rain = 0
KME1 131844Z 25010KT 16/M04 A301 RMK A01 T01611043  RH  024%=      5-min Rain = 0
KME1 131845Z 26010KT 16/M04 A301 RMK A01 T01621041  RH  025%=      5-min Rain = 0
KME1 131846Z 26013KT 16/M04 A301 RMK A01 T01631043  RH  024%=      5-min Rain = 0
KME1 131847Z 26010KT 16/M05 A301 RMK A01 T01641047  RH  023%=      5-min Rain = 0
KME1 131848Z 24012KT 16/M04 A301 RMK A01 T01631042  RH  024%=      5-min Rain = 0
KME1 131849Z 25010KT 17/M04 A301 RMK A01 T01651038  RH  025%=      5-min Rain = 0
KME1 131850Z 25008KT 17/M03 A301 RMK A01 T01671032  RH  025%=      5-min Rain = 0
KME1 131851Z 27009G14KT 17/M04 A301 RMK A01 T01691038  RH  024%=      5-min Rain = 0
KME1 131852Z 25010KT 17/M04 A301 RMK A01 T01691039  RH  024%=      5-min Rain = 0
KME1 131853Z 26010KT 17/M04 A301 RMK A01 T01691040  RH  024%=      5-min Rain = 0
KME1 131854Z 25014G19KT 17/M04 A3009 RMK A01 T01691041  RH  023%=      5-min Rain = 0
KME1 131855Z 25014KT 17/M05 A3009 RMK A01 T01691047  RH  022%=      5-min Rain = 0
KME1 131856Z 26013KT 17/M05 A3009 RMK A01 T01681050  RH  022%=      5-min Rain = 0
KME1 131857Z 25013KT 17/M04 A3009 RMK A01 T01681044  RH  023%=      5-min Rain = 0
KME1 131858Z 25012KT 17/M04 A3009 RMK A01 T01681044  RH  023%=      5-min Rain = 0
KME1 131859Z 25011KT 17/M05 A3009 RMK A01 T01681049  RH  022%=      5-min Rain = 0
KME1 131900Z 24009KT 17/M04 A3009 RMK A01 T01691044  RH  023%=      5-min Rain = 0
KME1 131901Z 25008KT 17/M05 A3009 RMK A01 T01701047  RH  022%=      5-min Rain = 0
KME1 131902Z 26011KT 17/M04 A3009 RMK A01 T01711042  RH  023%=      5-min Rain = 0
KME1 131903Z 27008KT 17/M04 A3009 RMK A01 T01711044  RH  023%=      5-min Rain = 0
KME1 131904Z 28010KT 17/M04 A3009 RMK A01 T01711039  RH  023%=      5-min Rain = 0
KME1 131905Z 27008KT 17/M04 A3009 RMK A01 T01721041  RH  023%=      5-min Rain = 0
KME1 131906Z 26009KT 17/M04 A3009 RMK A01 T01721036  RH  024%=      5-min Rain = 0
KME1 131907Z 24008KT 17/M05 A3009 RMK A01 T01731045  RH  022%=      5-min Rain = 0
KME1 131908Z 24011KT 17/M04 A3009 RMK A01 T01741039  RH  023%=      5-min Rain = 0
KME1 131909Z 24012KT 18/M04 A3009 RMK A01 T01761041  RH  022%=      5-min Rain = 0
KME1 131910Z 23011KT 18/M04 A3008 RMK A01 T01771043  RH  022%=      5-min Rain = 0
KME1 131911Z 24008KT 18/M04 A3008 RMK A01 T01771041  RH  022%=      5-min Rain = 0
KME1 131912Z 27010G16KT 18/M04 A3008 RMK A01 T01771039  RH  023%=      5-min Rain = 0
KME1 131913Z 26011G16KT 18/M05 A3008 RMK A01 T01761045  RH  022%=      5-min Rain = 0
KME1 131914Z 24006KT 17/M04 A3008 RMK A01 T01741042  RH  022%=      5-min Rain = 0
KME1 131915Z 24011KT 18/M04 A3008 RMK A01 T01761037  RH  023%=      5-min Rain = 0
KME1 131916Z 24011KT 18/M05 A3008 RMK A01 T01771045  RH  022%=      5-min Rain = 0
KME1 131917Z 24012KT 18/M05 A3008 RMK A01 T01771045  RH  022%=      5-min Rain = 0
KME1 131918Z 26009KT 18/M04 A3008 RMK A01 T01771042  RH  022%=      5-min Rain = 0
KME1 131919Z 24010G16KT 18/M04 A3008 RMK A01 T01771039  RH  023%=      5-min Rain = 0
KME1 131920Z 25011KT 18/M04 A3008 RMK A01 T01771041  RH  022%=      5-min Rain = 0
KME1 131921Z 25013KT 18/M04 A3008 RMK A01 T01771040  RH  022%=      5-min Rain = 0
KME1 131922Z 24013KT 18/M05 A3008 RMK A01 T01771046  RH  022%=      5-min Rain = 0
KME1 131923Z 25011G16KT 18/M04 A3008 RMK A01 T01761042  RH  022%=      5-min Rain = 0
KME1 131924Z 26015KT 18/M04 A3008 RMK A01 T01781042  RH  022%=      5-min Rain = 0
KME1 131925Z 25012G18KT 18/M04 A3008 RMK A01 T01761043  RH  022%=      5-min Rain = 0
KME1 131926Z 26008KT 18/M05 A3007 RMK A01 T01751048  RH  022%=      5-min Rain = 0
KME1 131927Z 26009G14KT 18/M04 A3007 RMK A01 T01751043  RH  022%=      5-min Rain = 0
KME1 131928Z 28012KT 18/M05 A3007 RMK A01 T01751047  RH  021%=      5-min Rain = 0
KME1 131929Z 27012KT 18/M04 A3007 RMK A01 T01751044  RH  022%=      5-min Rain = 0
KME1 131930Z 27010KT 17/M04 A3007 RMK A01 T01741044  RH  022%=      5-min Rain = 0
KME1 131931Z 27010KT 17/M05 A3007 RMK A01 T01741049  RH  021%=      5-min Rain = 0
KME1 131932Z 25008KT 17/M05 A3007 RMK A01 T01731048  RH  022%=      5-min Rain = 0
KME1 131933Z 27010G16KT 17/M04 A3007 RMK A01 T01741042  RH  023%=      5-min Rain = 0
KME1 131934Z 25012KT 18/M04 A3007 RMK A01 T01751040  RH  023%=      5-min Rain = 0
KME1 131935Z 26011KT 18/M04 A3007 RMK A01 T01771039  RH  023%=      5-min Rain = 0
KME1 131936Z 25013KT 18/M05 A3007 RMK A01 T01771045  RH  022%=      5-min Rain = 0
KME1 131937Z 25010KT 18/M04 A3007 RMK A01 T01761041  RH  022%=      5-min Rain = 0
KME1 131938Z 25012KT 18/M04 A3007 RMK A01 T01771042  RH  022%=      5-min Rain = 0
KME1 131939Z 26010KT 18/M05 A3007 RMK A01 T01771047  RH  021%=      5-min Rain = 0
KME1 131940Z 27009KT 18/M04 A3007 RMK A01 T01771042  RH  022%=      5-min Rain = 0
KME1 131941Z 25011KT 18/M04 A3007 RMK A01 T01781036  RH  023%=      5-min Rain = 0
KME1 131942Z 24010KT 18/M04 A3007 RMK A01 T01791037  RH  023%=      5-min Rain = 0
KME1 131943Z 23012KT 18/M04 A3006 RMK A01 T01801038  RH  022%=      5-min Rain = 0
KME1 131944Z 23011KT 18/M04 A3006 RMK A01 T01821042  RH  021%=      5-min Rain = 0
KME1 131945Z 24012KT 18/M04 A3006 RMK A01 T01841042  RH  021%=      5-min Rain = 0
KME1 131946Z 24011G20KT 18/M04 A3006 RMK A01 T01841039  RH  022%=      5-min Rain = 0
KME1 131947Z 24013KT 18/M05 A3006 RMK A01 T01841048  RH  020%=      5-min Rain = 0
KME1 131948Z 24010G16KT 18/M04 A3006 RMK A01 T01831044  RH  021%=      5-min Rain = 0
KME1 131949Z 24010KT 18/M04 A3006 RMK A01 T01841043  RH  021%=      5-min Rain = 0
KME1 131950Z 25008KT 19/M04 A3006 RMK A01 T01851039  RH  022%=      5-min Rain = 0
KME1 131951Z 27009KT 19/M03 A3006 RMK A01 T01861034  RH  022%=      5-min Rain = 0
KME1 131952Z 26008KT 19/M05 A3006 RMK A01 T01861049  RH  020%=      5-min Rain = 0
KME1 131953Z 23009KT 18/M04 A3006 RMK A01 T01841040  RH  022%=      5-min Rain = 0
KME1 131954Z 22007KT 19/M04 A3006 RMK A01 T01851042  RH  021%=      5-min Rain = 0
KME1 131955Z 22008KT 19/M04 A3006 RMK A01 T01861042  RH  021%=      5-min Rain = 0
KME1 131956Z 26012KT 19/M04 A3006 RMK A01 T01871040  RH  021%=      5-min Rain = 0
KME1 131957Z 26012KT 19/M05 A3006 RMK A01 T01861048  RH  020%=      5-min Rain = 0
KME1 131958Z 24010KT 18/M04 A3006 RMK A01 T01831042  RH  021%=      5-min Rain = 0
KME1 131959Z 22010KT 18/M04 A3006 RMK A01 T01831036  RH  022%=      5-min Rain = 0
KME1 132000Z 21012KT 18/M04 A3006 RMK A01 T01841037  RH  022%=      5-min Rain = 0
KME1 132001Z 22010KT 18/M04 A3005 RMK A01 T01841037  RH  022%=      5-min Rain = 0
KME1 132002Z 22011KT 18/M04 A3005 RMK A01 T01841038  RH  022%=      5-min Rain = 0
KME1 132003Z 25009KT 19/M04 A3005 RMK A01 T01851035  RH  022%=      5-min Rain = 0
KME1 132004Z 25012KT 19/M04 A3005 RMK A01 T01871038  RH  021%=      5-min Rain = 0
KME1 132005Z 23008KT 19/M04 A3005 RMK A01 T01871041  RH  021%=      5-min Rain = 0
KME1 132006Z 24011KT 19/M04 A3005 RMK A01 T01881038  RH  021%=      5-min Rain = 0
KME1 132007Z 23012KT 19/M04 A3005 RMK A01 T01891044  RH  020%=      5-min Rain = 0
KME1 132008Z 23010KT 19/M04 A3005 RMK A01 T01881036  RH  022%=      5-min Rain = 0
KME1 132009Z 22008KT 19/M03 A3005 RMK A01 T01881032  RH  022%=      5-min Rain = 0
KME1 132010Z 23008KT 19/M03 A3005 RMK A01 T01891031  RH  022%=      5-min Rain = 0
KME1 132011Z 23009KT 19/M04 A3005 RMK A01 T01891035  RH  022%=      5-min Rain = 0
KME1 132012Z 23009KT 19/M04 A3005 RMK A01 T01891037  RH  021%=      5-min Rain = 0
KME1 132013Z 23009KT 19/M04 A3005 RMK A01 T01891042  RH  021%=      5-min Rain = 0
KME1 132014Z 22012KT 19/M04 A3005 RMK A01 T01891042  RH  021%=      5-min Rain = 0
KME1 132015Z 22011KT 19/M04 A3005 RMK A01 T01881037  RH  021%=      5-min Rain = 0
KME1 132016Z 23011G16KT 19/M04 A3005 RMK A01 T01881038  RH  021%=      5-min Rain = 0
KME1 132017Z 21012KT 19/M04 A3004 RMK A01 T01891039  RH  021%=      5-min Rain = 0
KME1 132018Z 21012KT 19/M04 A3004 RMK A01 T01891043  RH  020%=      5-min Rain = 0
KME1 132019Z 21014KT 19/M04 A3004 RMK A01 T01871039  RH  021%=      5-min Rain = 0
KME1 132020Z 21014KT 19/M03 A3004 RMK A01 T01851031  RH  023%=      5-min Rain = 0
KME1 132021Z 22014KT 18/M03 A3004 RMK A01 T01831030  RH  023%=      5-min Rain = 0
KME1 132022Z 22012KT 18/M03 A3004 RMK A01 T01821031  RH  023%=      5-min Rain = 0
KME1 132023Z 21015KT 18/M03 A3004 RMK A01 T01821032  RH  023%=      5-min Rain = 0
KME1 132024Z 22012KT 18/M03 A3004 RMK A01 T01831029  RH  023%=      5-min Rain = 0
KME1 132025Z 22012KT 18/M03 A3004 RMK A01 T01841031  RH  023%=      5-min Rain = 0
KME1 132026Z 22012KT 18/M03 A3004 RMK A01 T01841033  RH  023%=      5-min Rain = 0
KME1 132027Z 21009KT 18/M03 A3004 RMK A01 T01831031  RH  023%=      5-min Rain = 0
KME1 132028Z 21010KT 19/M03 A3004 RMK A01 T01851032  RH  023%=      5-min Rain = 0
KME1 132029Z 22014KT 19/M03 A3004 RMK A01 T01861033  RH  022%=      5-min Rain = 0
KME1 132030Z 24013KT 19/M04 A3004 RMK A01 T01881039  RH  021%=      5-min Rain = 0
KME1 132031Z 24015KT 19/M05 A3004 RMK A01 T01891049  RH  019%=      5-min Rain = 0
KME1 132032Z 25013G18KT 19/M06 A3004 RMK A01 T01891060  RH  018%=      5-min Rain = 0
KME1 132033Z 25010KT 19/M05 A3004 RMK A01 T01881052  RH  019%=      5-min Rain = 0
KME1 132034Z 25014KT 19/M05 A3004 RMK A01 T01891053  RH  019%=      5-min Rain = 0
KME1 132035Z 26013KT 19/M06 A3004 RMK A01 T01881059  RH  018%=      5-min Rain = 0
KME1 132036Z 26012G17KT 19/M06 A3004 RMK A01 T01861056  RH  019%=      5-min Rain = 0
KME1 132037Z 23010KT 19/M05 A3004 RMK A01 T01851046  RH  020%=      5-min Rain = 0
KME1 132038Z 22011KT 19/M04 A3004 RMK A01 T01851042  RH  021%=      5-min Rain = 0
KME1 132039Z 23012KT 19/M03 A3004 RMK A01 T01861034  RH  022%=      5-min Rain = 0
KME1 132040Z 23012KT 19/M04 A3004 RMK A01 T01871036  RH  022%=      5-min Rain = 0
KME1 132041Z 21012G18KT 19/M04 A3003 RMK A01 T01861038  RH  021%=      5-min Rain = 0
KME1 132042Z 22013KT 18/M04 A3003 RMK A01 T01831038  RH  022%=      5-min Rain = 0
KME1 132043Z 22015KT 18/M04 A3003 RMK A01 T01811038  RH  022%=      5-min Rain = 0
KME1 132044Z 21013KT 18/M04 A3003 RMK A01 T01781042  RH  022%=      5-min Rain = 0
KME1 132045Z 21014KT 18/M04 A3003 RMK A01 T01761041  RH  023%=      5-min Rain = 0
KME1 132046Z 21012KT 17/M04 A3003 RMK A01 T01741037  RH  023%=      5-min Rain = 0
KME1 132047Z 22011KT 17/M04 A3003 RMK A01 T01731036  RH  024%=      5-min Rain = 0
KME1 132048Z 22011KT 17/M03 A3003 RMK A01 T01731034  RH  024%=      5-min Rain = 0
KME1 132049Z 22013KT 17/M04 A3003 RMK A01 T01731037  RH  023%=      5-min Rain = 0
KME1 132050Z 21012KT 17/M04 A3003 RMK A01 T01731039  RH  023%=      5-min Rain = 0
KME1 132051Z 21012KT 17/M04 A3003 RMK A01 T01731036  RH  024%=      5-min Rain = 0
KME1 132052Z 21013KT 17/M04 A3003 RMK A01 T01741038  RH  023%=      5-min Rain = 0
KME1 132053Z 21011KT 18/M04 A3003 RMK A01 T01751035  RH  024%=      5-min Rain = 0
KME1 132054Z 22011KT 18/M03 A3003 RMK A01 T01761033  RH  024%=      5-min Rain = 0
KME1 132055Z 22012KT 18/M04 A3003 RMK A01 T01771037  RH  023%=      5-min Rain = 0
KME1 132056Z 22012KT 18/M03 A3003 RMK A01 T01771034  RH  023%=      5-min Rain = 0
KME1 132057Z 22012KT 18/M04 A3003 RMK A01 T01771037  RH  023%=      5-min Rain = 0
KME1 132058Z 23010KT 18/M05 A3003 RMK A01 T01791046  RH  021%=      5-min Rain = 0
KME1 132059Z 24011KT 18/M05 A3003 RMK A01 T01801054  RH  020%=      5-min Rain = 0
KME1 132100Z 25011G19KT 18/M05 A3003 RMK A01 T01811050  RH  020%=      5-min Rain = 0
KME1 132101Z 24016G21KT 18/M06 A3002 RMK A01 T01821058  RH  019%=      5-min Rain = 0
KME1 132102Z 24011KT 18/M05 A3002 RMK A01 T01821053  RH  020%=      5-min Rain = 0
KME1 132103Z 24014KT 18/M06 A3002 RMK A01 T01831060  RH  019%=      5-min Rain = 0
KME1 132104Z 24014KT 18/M06 A3002 RMK A01 T01831061  RH  018%=      5-min Rain = 0
KME1 132105Z 24011KT 18/M05 A3002 RMK A01 T01841053  RH  020%=      5-min Rain = 0
KME1 132106Z 24011KT 19/M05 A3002 RMK A01 T01851051  RH  020%=      5-min Rain = 0
KME1 132107Z 24012KT 19/M06 A3002 RMK A01 T01861058  RH  019%=      5-min Rain = 0
KME1 132108Z 24017G22KT 19/M06 A3002 RMK A01 T01861059  RH  018%=      5-min Rain = 0
KME1 132109Z 23015KT 18/M06 A3002 RMK A01 T01841060  RH  019%=      5-min Rain = 0
KME1 132110Z 23016KT 18/M06 A3002 RMK A01 T01841058  RH  019%=      5-min Rain = 0
KME1 132111Z 23014KT 18/M06 A3002 RMK A01 T01831061  RH  018%=      5-min Rain = 0
KME1 132112Z 23014KT 18/M06 A3002 RMK A01 T01831057  RH  019%=      5-min Rain = 0
KME1 132113Z 23012KT 18/M05 A3002 RMK A01 T01841052  RH  020%=      5-min Rain = 0
KME1 132114Z 23010KT 19/M05 A3002 RMK A01 T01851051  RH  020%=      5-min Rain = 0
KME1 132115Z 23012KT 19/M05 A3001 RMK A01 T01871052  RH  019%=      5-min Rain = 0
KME1 132116Z 22011KT 19/M05 A3001 RMK A01 T01871049  RH  020%=      5-min Rain = 0
KME1 132117Z 22009KT 19/M05 A3001 RMK A01 T01871047  RH  020%=      5-min Rain = 0
KME1 132118Z 22012G18KT 19/M04 A3001 RMK A01 T01891043  RH  020%=      5-min Rain = 0
KME1 132119Z 22012G19KT 19/M05 A3001 RMK A01 T01891052  RH  019%=      5-min Rain = 0
KME1 132120Z 24013KT 19/M06 A3001 RMK A01 T01871057  RH  019%=      5-min Rain = 0
KME1 132121Z 23013KT 19/M05 A3001 RMK A01 T01861054  RH  019%=      5-min Rain = 0
KME1 132122Z 22015KT 19/M06 A3001 RMK A01 T01851061  RH  018%=      5-min Rain = 0
KME1 132123Z 22015KT 18/M06 A3001 RMK A01 T01831060  RH  019%=      5-min Rain = 0
KME1 132124Z 22013KT 18/M06 A3001 RMK A01 T01821056  RH  019%=      5-min Rain = 0
KME1 132125Z 23014KT 18/M06 A3001 RMK A01 T01831057  RH  019%=      5-min Rain = 0
KME1 132126Z 25013KT 18/M06 A3001 RMK A01 T01841056  RH  019%=      5-min Rain = 0
KME1 132127Z 23014KT 18/M05 A3001 RMK A01 T01841050  RH  020%=      5-min Rain = 0
KME1 132128Z 23015KT 18/M05 A3001 RMK A01 T01841054  RH  019%=      5-min Rain = 0
KME1 132129Z 22014KT 18/M06 A3001 RMK A01 T01841055  RH  019%=      5-min Rain = 0
KME1 132130Z 22012KT 18/M05 A3001 RMK A01 T01831053  RH  020%=      5-min Rain = 0
KME1 132131Z 23012KT 18/M05 A3001 RMK A01 T01831054  RH  020%=      5-min Rain = 0
KME1 132132Z 22014KT 18/M05 A3001 RMK A01 T01841051  RH  020%=      5-min Rain = 0
KME1 132133Z 24013KT 18/M05 A3002 RMK A01 T01841052  RH  020%=      5-min Rain = 0
KME1 132134Z 24013KT 19/M05 A3002 RMK A01 T01851053  RH  019%=      5-min Rain = 0
KME1 132135Z 24013KT 18/M05 A3002 RMK A01 T01841054  RH  019%=      5-min Rain = 0
KME1 132136Z 24014KT 18/M06 A3002 RMK A01 T01841056  RH  019%=      5-min Rain = 0
KME1 132137Z 25012KT 18/M06 A3002 RMK A01 T01841056  RH  019%=      5-min Rain = 0
KME1 132138Z 25014KT 18/M05 A3002 RMK A01 T01831053  RH  020%=      5-min Rain = 0
KME1 132139Z 24013KT 18/M05 A3002 RMK A01 T01831050  RH  020%=      5-min Rain = 0
KME1 132140Z 22012KT 18/M05 A3002 RMK A01 T01841050  RH  020%=      5-min Rain = 0
KME1 132141Z 23011KT 19/M05 A3001 RMK A01 T01851052  RH  020%=      5-min Rain = 0
KME1 132142Z 23013KT 19/M05 A3001 RMK A01 T01861052  RH  019%=      5-min Rain = 0
KME1 132143Z 23010KT 19/M05 A3001 RMK A01 T01861053  RH  019%=      5-min Rain = 0
KME1 132144Z 23010KT 19/M05 A3001 RMK A01 T01861049  RH  020%=      5-min Rain = 0
KME1 132145Z 22013KT 19/M05 A3001 RMK A01 T01871049  RH  020%=      5-min Rain = 0
KME1 132146Z 23013KT 19/M05 A3001 RMK A01 T01881048  RH  020%=      5-min Rain = 0
KME1 132147Z 23014KT 19/M05 A3001 RMK A01 T01881052  RH  019%=      5-min Rain = 0
KME1 132148Z 23013KT 19/M05 A3001 RMK A01 T01871052  RH  019%=      5-min Rain = 0
KME1 132149Z 22012KT 19/M05 A3001 RMK A01 T01861051  RH  019%=      5-min Rain = 0
KME1 132150Z 22013KT 19/M05 A3001 RMK A01 T01861053  RH  019%=      5-min Rain = 0
KME1 132151Z 22010KT 19/M05 A3001 RMK A01 T01861050  RH  020%=      5-min Rain = 0
KME1 132152Z 24011KT 19/M05 A3001 RMK A01 T01871049  RH  020%=      5-min Rain = 0
KME1 132153Z 26011KT 19/M05 A3001 RMK A01 T01881053  RH  019%=      5-min Rain = 0
KME1 132154Z 25011KT 19/M06 A3001 RMK A01 T01891057  RH  018%=      5-min Rain = 0
KME1 132155Z 25012KT 19/M06 A3001 RMK A01 T01891058  RH  018%=      5-min Rain = 0
KME1 132156Z 24013G18KT 19/M06 A3001 RMK A01 T01891057  RH  018%=      5-min Rain = 0
KME1 132157Z 25013KT 19/M06 A3001 RMK A01 T01891061  RH  018%=      5-min Rain = 0
KME1 132158Z 25011KT 19/M06 A3001 RMK A01 T01881061  RH  018%=      5-min Rain = 0
KME1 132159Z 25012KT 19/M06 A3001 RMK A01 T01871064  RH  018%=      5-min Rain = 0
KME1 132200Z 24012G17KT 19/M06 A3001 RMK A01 T01871063  RH  018%=      5-min Rain = 0
KME1 132201Z 25013KT 19/M06 A3001 RMK A01 T01871062  RH  018%=      5-min Rain = 0
KME1 132202Z 24012KT 19/M06 A3001 RMK A01 T01871063  RH  018%=      5-min Rain = 0
KME1 132203Z 24010KT 19/M07 A3001 RMK A01 T01871065  RH  017%=      5-min Rain = 0
KME1 132204Z 24008KT 19/M06 A3001 RMK A01 T01871061  RH  018%=      5-min Rain = 0
KME1 132205Z 24011KT 19/M06 A3001 RMK A01 T01891062  RH  018%=      5-min Rain = 0
KME1 132206Z 26013G18KT 19/M06 A3001 RMK A01 T01901059  RH  018%=      5-min Rain = 0
KME1 132207Z 26014KT 19/M06 A3001 RMK A01 T01891064  RH  017%=      5-min Rain = 0
KME1 132208Z 25013KT 19/M07 A3001 RMK A01 T01881065  RH  017%=      5-min Rain = 0
KME1 132209Z 26014KT 19/M06 A3001 RMK A01 T01871063  RH  018%=      5-min Rain = 0
KME1 132210Z 24012G17KT 19/M06 A3001 RMK A01 T01861063  RH  018%=      5-min Rain = 0
KME1 132211Z 24011KT 19/M06 A3001 RMK A01 T01861064  RH  018%=      5-min Rain = 0
KME1 132212Z 23013G18KT 19/M07 A3001 RMK A01 T01861067  RH  017%=      5-min Rain = 0
KME1 132213Z 24012KT 19/M07 A3001 RMK A01 T01871070  RH  017%=      5-min Rain = 0
KME1 132214Z 23013KT 19/M07 A3001 RMK A01 T01871068  RH  017%=      5-min Rain = 0
KME1 132215Z 23013KT 19/M07 A3001 RMK A01 T01871068  RH  017%=      5-min Rain = 0
KME1 132216Z 25013G19KT 19/M07 A3001 RMK A01 T01871068  RH  017%=      5-min Rain = 0
KME1 132217Z 25014KT 19/M07 A3001 RMK A01 T01871067  RH  017%=      5-min Rain = 0
KME1 132218Z 24015KT 19/M07 A3001 RMK A01 T01861067  RH  017%=      5-min Rain = 0
KME1 132219Z 25013G18KT 19/M07 A3001 RMK A01 T01851068  RH  017%=      5-min Rain = 0
KME1 132220Z 25014G19KT 19/M06 A3001 RMK A01 T01851063  RH  018%=      5-min Rain = 0
KME1 132221Z 23016KT 18/M07 A3001 RMK A01 T01841067  RH  018%=      5-min Rain = 0
KME1 132222Z 25014KT 18/M07 A3001 RMK A01 T01841066  RH  018%=      5-min Rain = 0
KME1 132223Z 25013G18KT 18/M07 A3001 RMK A01 T01841065  RH  018%=      5-min Rain = 0
KME1 132224Z 25012G17KT 18/M07 A3001 RMK A01 T01831066  RH  018%=      5-min Rain = 0
KME1 132225Z 25011KT 18/M06 A3001 RMK A01 T01831062  RH  018%=      5-min Rain = 0
KME1 132226Z 24013KT 18/M06 A3001 RMK A01 T01831062  RH  018%=      5-min Rain = 0
KME1 132227Z 25016KT 18/M07 A3001 RMK A01 T01831067  RH  018%=      5-min Rain = 0
KME1 132228Z 25016KT 18/M07 A3001 RMK A01 T01831069  RH  017%=      5-min Rain = 0
KME1 132229Z 25015KT 18/M07 A3001 RMK A01 T01821070  RH  017%=      5-min Rain = 0
KME1 132230Z 25014KT 18/M07 A3002 RMK A01 T01821069  RH  018%=      5-min Rain = 0
KME1 132231Z 26014KT 18/M07 A3001 RMK A01 T01821067  RH  018%=      5-min Rain = 0
KME1 132232Z 25010KT 18/M06 A3001 RMK A01 T01821063  RH  018%=      5-min Rain = 0
KME1 132233Z 26012G17KT 18/M06 A3001 RMK A01 T01821059  RH  019%=      5-min Rain = 0
KME1 132234Z 27011KT 18/M06 A3001 RMK A01 T01811064  RH  018%=      5-min Rain = 0
KME1 132235Z 26010G15KT 18/M06 A3001 RMK A01 T01821060  RH  019%=      5-min Rain = 0
KME1 132236Z 26012KT 18/M06 A3001 RMK A01 T01811057  RH  019%=      5-min Rain = 0
KME1 132237Z 26014KT 18/M06 A3001 RMK A01 T01821061  RH  019%=      5-min Rain = 0
KME1 132238Z 27012KT 18/M06 A3001 RMK A01 T01811064  RH  018%=      5-min Rain = 0
KME1 132239Z 26013KT 18/M06 A3001 RMK A01 T01811061  RH  019%=      5-min Rain = 0
KME1 132240Z 26013G18KT 18/M06 A3001 RMK A01 T01811062  RH  019%=      5-min Rain = 0
KME1 132241Z 25010KT 18/M06 A3001 RMK A01 T01811059  RH  019%=      5-min Rain = 0
KME1 132242Z 25011KT 18/M06 A3001 RMK A01 T01811056  RH  019%=      5-min Rain = 0
KME1 132243Z 26010KT 18/M06 A3001 RMK A01 T01801058  RH  019%=      5-min Rain = 0
KME1 132244Z 26011KT 18/M06 A3001 RMK A01 T01811055  RH  020%=      5-min Rain = 0
KME1 132245Z 26009KT 18/M06 A3001 RMK A01 T01801055  RH  020%=      5-min Rain = 0
KME1 132246Z 24009KT 18/M05 A3001 RMK A01 T01801052  RH  020%=      5-min Rain = 0
KME1 132247Z 24010KT 18/M06 A3001 RMK A01 T01801058  RH  019%=      5-min Rain = 0
KME1 132248Z 25009G14KT 18/M06 A3001 RMK A01 T01811055  RH  020%=      5-min Rain = 0
KME1 132249Z 25012KT 18/M06 A30 RMK A01 T01811055  RH  019%=      5-min Rain = 0
KME1 132250Z 24010G16KT 18/M06 A3001 RMK A01 T01811055  RH  020%=      5-min Rain = 0
KME1 132251Z 25011G16KT 18/M05 A30 RMK A01 T01811054  RH  020%=      5-min Rain = 0
KME1 132252Z 24009KT 18/M05 A3001 RMK A01 T01811054  RH  020%=      5-min Rain = 0
KME1 132253Z 24008KT 18/M05 A3001 RMK A01 T01811054  RH  020%=      5-min Rain = 0
KME1 132254Z 25009KT 18/M06 A30 RMK A01 T01801056  RH  020%=      5-min Rain = 0
KME1 132255Z 24010KT 18/M06 A30 RMK A01 T01811056  RH  020%=      5-min Rain = 0
KME1 132256Z 24012KT 18/M06 A30 RMK A01 T01811058  RH  019%=      5-min Rain = 0
KME1 132257Z 23009KT 18/M06 A30 RMK A01 T01811057  RH  019%=      5-min Rain = 0
KME1 132258Z 24009KT 18/M05 A30 RMK A01 T01801054  RH  020%=      5-min Rain = 0
KME1 132259Z 23008KT 18/M05 A30 RMK A01 T01811052  RH  020%=      5-min Rain = 0
KME1 132300Z 23009KT 18/M05 A30 RMK A01 T01811052  RH  020%=      5-min Rain = 0
KME1 132301Z 23011KT 18/M06 A30 RMK A01 T01811055  RH  020%=      5-min Rain = 0
KME1 132302Z 23009KT 18/M06 A30 RMK A01 T01811055  RH  020%=      5-min Rain = 0
KME1 132303Z 23011KT 18/M05 A30 RMK A01 T01801053  RH  020%=      5-min Rain = 0
KME1 132304Z 22010KT 18/M05 A2999 RMK A01 T01801054  RH  020%=      5-min Rain = 0
KME1 132305Z 23010KT 18/M06 A2999 RMK A01 T01801055  RH  020%=      5-min Rain = 0
KME1 132306Z 22009KT 18/M05 A2999 RMK A01 T01801052  RH  020%=      5-min Rain = 0
KME1 132307Z 22007KT 18/M05 A2999 RMK A01 T01791049  RH  021%=      5-min Rain = 0
KME1 132308Z 23007KT 18/M05 A2999 RMK A01 T01791047  RH  021%=      5-min Rain = 0
KME1 132309Z 22007KT 18/M05 A2999 RMK A01 T01791047  RH  021%=      5-min Rain = 0
KME1 132310Z 23007KT 18/M04 A2999 RMK A01 T01781044  RH  022%=      5-min Rain = 0
KME1 132311Z 22011KT 18/M05 A2999 RMK A01 T01781045  RH  022%=      5-min Rain = 0
KME1 132312Z 21010KT 18/M05 A2999 RMK A01 T01781046  RH  021%=      5-min Rain = 0
KME1 132313Z 22009KT 18/M04 A2999 RMK A01 T01771044  RH  022%=      5-min Rain = 0
KME1 132314Z 22009KT 18/M04 A2999 RMK A01 T01761042  RH  022%=      5-min Rain = 0
KME1 132315Z 22009KT 18/M04 A30 RMK A01 T01751040  RH  023%=      5-min Rain = 0
KME1 132316Z 21009KT 17/M04 A30 RMK A01 T01741040  RH  023%=      5-min Rain = 0
KME1 132317Z 21009KT 17/M04 A30 RMK A01 T01731037  RH  024%=      5-min Rain = 0
KME1 132318Z 22011KT 17/M04 A2999 RMK A01 T01721035  RH  024%=      5-min Rain = 0
KME1 132319Z 21011KT 17/M04 A2999 RMK A01 T01701037  RH  024%=      5-min Rain = 0
KME1 132320Z 21008KT 17/M04 A2999 RMK A01 T01701035  RH  024%=      5-min Rain = 0
KME1 132321Z 21009KT 17/M03 A2999 RMK A01 T01681032  RH  025%=      5-min Rain = 0
KME1 132322Z 21012KT 17/M03 A2999 RMK A01 T01681034  RH  025%=      5-min Rain = 0
KME1 132323Z 21009KT 17/M03 A2999 RMK A01 T01671034  RH  025%=      5-min Rain = 0
KME1 132324Z 21010KT 17/M03 A2998 RMK A01 T01661033  RH  025%=      5-min Rain = 0
KME1 132325Z 21009KT 17/M03 A2998 RMK A01 T01651032  RH  026%=      5-min Rain = 0
KME1 132326Z 21011KT 16/M03 A2998 RMK A01 T01641033  RH  026%=      5-min Rain = 0
KME1 132327Z 21010G15KT 16/M03 A2998 RMK A01 T01641034  RH  025%=      5-min Rain = 0
KME1 132328Z 21011KT 16/M03 A2998 RMK A01 T01641034  RH  025%=      5-min Rain = 0
KME1 132329Z 21010KT 16/M03 A2998 RMK A01 T01641034  RH  026%=      5-min Rain = 0
KME1 132330Z 20010KT 16/M03 A2998 RMK A01 T01641033  RH  026%=      5-min Rain = 0
KME1 132331Z 21009KT 16/M03 A2998 RMK A01 T01631031  RH  026%=      5-min Rain = 0
KME1 132332Z 21008KT 16/M03 A2998 RMK A01 T01611031  RH  027%=      5-min Rain = 0
KME1 132333Z 20010KT 16/M03 A2998 RMK A01 T01601031  RH  027%=      5-min Rain = 0
KME1 132334Z 21010KT 16/M03 A2998 RMK A01 T01591031  RH  027%=      5-min Rain = 0
KME1 132335Z 21009KT 16/M03 A2998 RMK A01 T01591031  RH  027%=      5-min Rain = 0
KME1 132336Z 21008KT 16/M03 A2998 RMK A01 T01581030  RH  027%=      5-min Rain = 0
KME1 132337Z 21009KT 16/M03 A2998 RMK A01 T01571030  RH  028%=      5-min Rain = 0
KME1 132338Z 21009KT 16/M03 A2998 RMK A01 T01561029  RH  028%=      5-min Rain = 0
KME1 132339Z 21008KT 16/M03 A2998 RMK A01 T01551030  RH  028%=      5-min Rain = 0
KME1 132340Z 21009KT 16/M03 A2998 RMK A01 T01551030  RH  028%=      5-min Rain = 0
KME1 132341Z 21008KT 15/M03 A2998 RMK A01 T01541030  RH  028%=      5-min Rain = 0
KME1 132342Z 21008KT 15/M03 A2998 RMK A01 T01531029  RH  028%=      5-min Rain = 0
KME1 132343Z 21007KT 15/M03 A2998 RMK A01 T01521029  RH  029%=      5-min Rain = 0
KME1 132344Z 20008KT 15/M03 A2998 RMK A01 T01511030  RH  029%=      5-min Rain = 0
KME1 132345Z 21007KT 15/M03 A2998 RMK A01 T01511030  RH  029%=      5-min Rain = 0
KME1 132346Z 21007KT 15/M03 A2998 RMK A01 T01501028  RH  029%=      5-min Rain = 0
KME1 132347Z 21008KT 15/M03 A2998 RMK A01 T01481029  RH  029%=      5-min Rain = 0
KME1 132348Z 20007KT 15/M03 A2998 RMK A01 T01471030  RH  029%=      5-min Rain = 0
KME1 132349Z 21007KT 15/M03 A2998 RMK A01 T01471030  RH  029%=      5-min Rain = 0
KME1 132350Z 21007KT 15/M03 A2998 RMK A01 T01461030  RH  030%=      5-min Rain = 0
KME1 132351Z 21007KT 15/M03 A2998 RMK A01 T01451029  RH  030%=      5-min Rain = 0
KME1 132352Z 21007KT 14/M03 A2998 RMK A01 T01431029  RH  030%=      5-min Rain = 0
KME1 132353Z 21006KT 14/M03 A2998 RMK A01 T01411029  RH  031%=      5-min Rain = 0
KME1 132354Z 21007KT 14/M03 A2998 RMK A01 T01401029  RH  031%=      5-min Rain = 0
KME1 132355Z 21006KT 14/M03 A2998 RMK A01 T01391030  RH  031%=      5-min Rain = 0
KME1 132356Z 21006KT 14/M03 A2998 RMK A01 T01371030  RH  031%=      5-min Rain = 0
KME1 132357Z 21007KT 14/M03 A2998 RMK A01 T01351030  RH  032%=      5-min Rain = 0
KME1 132358Z 21007KT 13/M03 A2998 RMK A01 T01341030  RH  032%=      5-min Rain = 0
KME1 132359Z 21007KT 13/M03 A2998 RMK A01 T01331030  RH  032%=      5-min Rain = 0
KME1 140000Z 20006KT 13/M03 A2998 RMK A01 T01321030  RH  032%=      5-min Rain = 0
KME1 140001Z 21006KT 13/M03 A2998 RMK A01 T01311030  RH  033%=      5-min Rain = 0
KME1 140002Z 21006KT 13/M03 A2998 RMK A01 T01291029  RH  033%=      5-min Rain = 0
KME1 140003Z 21006KT 13/M03 A2998 RMK A01 T01281029  RH  033%=      5-min Rain = 0
KME1 140004Z 20006KT 13/M03 A2998 RMK A01 T01271029  RH  034%=      5-min Rain = 0
KME1 140005Z 21005KT 13/M03 A2998 RMK A01 T01251030  RH  034%=      5-min Rain = 0
KME1 140006Z 21005KT 12/M03 A2998 RMK A01 T01241030  RH  034%=      5-min Rain = 0
KME1 140007Z 20005KT 12/M03 A2998 RMK A01 T01231030  RH  034%=      5-min Rain = 0
KME1 140008Z 20005KT 12/M03 A2998 RMK A01 T01221030  RH  035%=      5-min Rain = 0
KME1 140009Z 21005KT 12/M03 A2998 RMK A01 T01211030  RH  035%=      5-min Rain = 0
KME1 140010Z 21005KT 12/M03 A2998 RMK A01 T01211030  RH  035%=      5-min Rain = 0
KME1 140011Z 21005KT 12/M03 A2998 RMK A01 T01201030  RH  035%=      5-min Rain = 0
KME1 140012Z 21005KT 12/M03 A2998 RMK A01 T01191030  RH  035%=      5-min Rain = 0
KME1 140013Z 21005KT 12/M03 A2998 RMK A01 T01181027  RH  036%=      5-min Rain = 0
KME1 140014Z 21005KT 12/M03 A2998 RMK A01 T01161026  RH  037%=      5-min Rain = 0
KME1 140015Z 21006KT 11/M03 A2998 RMK A01 T01141027  RH  037%=      5-min Rain = 0
KME1 140016Z 22006KT 11/M03 A2998 RMK A01 T01131027  RH  038%=      5-min Rain = 0
KME1 140017Z 22006KT 11/M03 A2998 RMK A01 T01121026  RH  038%=      5-min Rain = 0
KME1 140018Z 22006KT 11/M03 A2998 RMK A01 T01111026  RH  038%=      5-min Rain = 0
KME1 140019Z 22006KT 11/M03 A2998 RMK A01 T01101026  RH  039%=      5-min Rain = 0
KME1 140020Z 23006KT 11/M03 A2998 RMK A01 T01091026  RH  039%=      5-min Rain = 0
KME1 140021Z 23006KT 11/M03 A2999 RMK A01 T01081026  RH  039%=      5-min Rain = 0
KME1 140022Z 23006KT 11/M03 A2999 RMK A01 T01071027  RH  039%=      5-min Rain = 0
KME1 140023Z 23006KT 11/M03 A2999 RMK A01 T01061028  RH  039%=      5-min Rain = 0
KME1 140024Z 23006KT 11/M03 A2999 RMK A01 T01051027  RH  040%=      5-min Rain = 0
KME1 140025Z 23007KT 11/M03 A2999 RMK A01 T01051026  RH  040%=      5-min Rain = 0
KME1 140026Z 23007KT 10/M03 A2999 RMK A01 T01041025  RH  040%=      5-min Rain = 0
KME1 140027Z 23007KT 10/M03 A2999 RMK A01 T01041025  RH  040%=      5-min Rain = 0
KME1 140028Z 23007KT 10/M02 A2999 RMK A01 T01041024  RH  041%=      5-min Rain = 0
KME1 140029Z 23008KT 10/M02 A2999 RMK A01 T01031023  RH  041%=      5-min Rain = 0
KME1 140030Z 23008KT 10/M02 A2999 RMK A01 T01021023  RH  042%=      5-min Rain = 0
KME1 140031Z 23009KT 10/M03 A2999 RMK A01 T01011025  RH  041%=      5-min Rain = 0
KME1 140032Z 23009KT 10/M03 A2999 RMK A01 T01011026  RH  041%=      5-min Rain = 0
KME1 140033Z 23009KT 10/M03 A2998 RMK A01 T01011026  RH  041%=      5-min Rain = 0
KME1 140034Z 23008KT 10/M03 A2998 RMK A01 T01011026  RH  041%=      5-min Rain = 0
KME1 140035Z 23008KT 10/M03 A2999 RMK A01 T01021026  RH  041%=      5-min Rain = 0
KME1 140036Z 23009KT 10/M03 A2999 RMK A01 T01021026  RH  041%=      5-min Rain = 0
KME1 140037Z 23008KT 10/M03 A2999 RMK A01 T01021027  RH  040%=      5-min Rain = 0
KME1 140038Z 23009KT 10/M03 A2999 RMK A01 T01021027  RH  040%=      5-min Rain = 0
KME1 140039Z 22009KT 10/M03 A2999 RMK A01 T01021027  RH  040%=      5-min Rain = 0
KME1 140040Z 22009KT 10/M03 A2999 RMK A01 T01021028  RH  040%=      5-min Rain = 0
KME1 140041Z 22009KT 10/M03 A2999 RMK A01 T01011028  RH  040%=      5-min Rain = 0
KME1 140042Z 22008KT 10/M03 A2999 RMK A01 T01011028  RH  040%=      5-min Rain = 0
KME1 140043Z 22009KT 10/M03 A2998 RMK A01 T01011028  RH  040%=      5-min Rain = 0
KME1 140044Z 22009KT 10/M03 A2998 RMK A01 T01011028  RH  040%=      5-min Rain = 0
KME1 140045Z 21009KT 10/M03 A2998 RMK A01 T01011027  RH  041%=      5-min Rain = 0
KME1 140046Z 21009KT 10/M03 A2998 RMK A01 T01001028  RH  041%=      5-min Rain = 0
KME1 140047Z 21009KT 10/M03 A2998 RMK A01 T01011027  RH  041%=      5-min Rain = 0
KME1 140048Z 21009KT 10/M03 A2998 RMK A01 T01001027  RH  041%=      5-min Rain = 0
KME1 140049Z 21009KT 10/M03 A2998 RMK A01 T01001026  RH  041%=      5-min Rain = 0
KME1 140050Z 21008KT 10/M03 A2998 RMK A01 T00991026  RH  041%=      5-min Rain = 0
KME1 140051Z 21008KT 10/M03 A2998 RMK A01 T00981026  RH  042%=      5-min Rain = 0
KME1 140052Z 21008KT 10/M03 A2998 RMK A01 T00981026  RH  042%=      5-min Rain = 0
KME1 140053Z 22009KT 10/M03 A2998 RMK A01 T00971026  RH  042%=      5-min Rain = 0
KME1 140054Z 22008KT 10/M03 A2998 RMK A01 T00971026  RH  042%=      5-min Rain = 0
KME1 140055Z 22008KT 10/M03 A2998 RMK A01 T00971026  RH  042%=      5-min Rain = 0
KME1 140056Z 22008KT 10/M03 A2998 RMK A01 T00971026  RH  042%=      5-min Rain = 0
KME1 140057Z 22008KT 10/M03 A2998 RMK A01 T00971026  RH  042%=      5-min Rain = 0
KME1 140058Z 22008KT 10/M03 A2998 RMK A01 T00971026  RH  042%=      5-min Rain = 0
KME1 140059Z 22008KT 10/M03 A2998 RMK A01 T00971026  RH  042%=      5-min Rain = 0
KME1 140100Z 22008KT 10/M03 A2998 RMK A01 T00961025  RH  042%=      5-min Rain = 0
KME1 140101Z 22008KT 10/M03 A2997 RMK A01 T00951025  RH  043%=      5-min Rain = 0
KME1 140102Z 22008KT 10/M03 A2997 RMK A01 T00951025  RH  043%=      5-min Rain = 0
KME1 140103Z 22008KT 09/M03 A2997 RMK A01 T00931026  RH  043%=      5-min Rain = 0
KME1 140104Z 22007KT 09/M03 A2997 RMK A01 T00931025  RH  043%=      5-min Rain = 0
KME1 140105Z 22007KT 09/M03 A2997 RMK A01 T00921025  RH  044%=      5-min Rain = 0
KME1 140106Z 22007KT 09/M03 A2997 RMK A01 T00931025  RH  044%=      5-min Rain = 0
KME1 140107Z 22007KT 09/M03 A2997 RMK A01 T00921025  RH  044%=      5-min Rain = 0
KME1 140108Z 22006KT 09/M03 A2997 RMK A01 T00901025  RH  044%=      5-min Rain = 0
KME1 140109Z 22007KT 09/M03 A2997 RMK A01 T00891025  RH  045%=      5-min Rain = 0
KME1 140110Z 22007KT 09/M03 A2998 RMK A01 T00871025  RH  045%=      5-min Rain = 0
KME1 140111Z 22007KT 09/M03 A2998 RMK A01 T00861025  RH  045%=      5-min Rain = 0
KME1 140112Z 22007KT 09/M03 A2998 RMK A01 T00851026  RH  046%=      5-min Rain = 0
KME1 140113Z 22007KT 09/M03 A2998 RMK A01 T00851026  RH  046%=      5-min Rain = 0
KME1 140114Z 22007KT 08/M03 A2998 RMK A01 T00841026  RH  046%=      5-min Rain = 0
KME1 140115Z 22007KT 09/M03 A2998 RMK A01 T00851026  RH  046%=      5-min Rain = 0
KME1 140116Z 22007KT 09/M03 A2998 RMK A01 T00851025  RH  046%=      5-min Rain = 0
KME1 140117Z 21007KT 08/M03 A2997 RMK A01 T00841025  RH  046%=      5-min Rain = 0
KME1 140118Z 21007KT 08/M03 A2998 RMK A01 T00841025  RH  046%=      5-min Rain = 0
KME1 140119Z 21007KT 08/M03 A2998 RMK A01 T00831025  RH  046%=      5-min Rain = 0
KME1 140120Z 21007KT 08/M02 A2998 RMK A01 T00831024  RH  047%=      5-min Rain = 0
KME1 140121Z 21007KT 08/M03 A2998 RMK A01 T00821025  RH  047%=      5-min Rain = 0
KME1 140122Z 21007KT 08/M03 A2997 RMK A01 T00811025  RH  047%=      5-min Rain = 0
KME1 140123Z 21007KT 08/M03 A2997 RMK A01 T00811025  RH  047%=      5-min Rain = 0
KME1 140124Z 21007KT 08/M03 A2997 RMK A01 T00801025  RH  048%=      5-min Rain = 0
KME1 140125Z 21008KT 08/M03 A2997 RMK A01 T00791025  RH  048%=      5-min Rain = 0
KME1 140126Z 21008KT 08/M02 A2997 RMK A01 T00791024  RH  048%=      5-min Rain = 0
KME1 140127Z 21008KT 08/M02 A2997 RMK A01 T00791024  RH  048%=      5-min Rain = 0
KME1 140128Z 21008KT 08/M02 A2997 RMK A01 T00801024  RH  048%=      5-min Rain = 0
KME1 140129Z 21008KT 08/M02 A2997 RMK A01 T00801024  RH  048%=      5-min Rain = 0
KME1 140130Z 21008KT 08/M02 A2997 RMK A01 T00801024  RH  048%=      5-min Rain = 0
KME1 140131Z 20008KT 08/M02 A2997 RMK A01 T00801024  RH  048%=      5-min Rain = 0
KME1 140132Z 20007KT 08/M02 A2997 RMK A01 T00801024  RH  048%=      5-min Rain = 0
KME1 140133Z 20006KT 08/M03 A2997 RMK A01 T00781025  RH  048%=      5-min Rain = 0
KME1 140134Z 20007KT 08/M02 A2997 RMK A01 T00761024  RH  049%=      5-min Rain = 0
KME1 140135Z 20007KT 07/M02 A2997 RMK A01 T00731024  RH  050%=      5-min Rain = 0
KME1 140136Z 20006KT 07/M02 A2997 RMK A01 T00711024  RH  051%=      5-min Rain = 0
KME1 140137Z 20007KT 07/M02 A2997 RMK A01 T00701024  RH  051%=      5-min Rain = 0
KME1 140138Z 20007KT 07/M03 A2997 RMK A01 T00691025  RH  051%=      5-min Rain = 0
KME1 140139Z 20007KT 07/M03 A2997 RMK A01 T00681025  RH  052%=      5-min Rain = 0
KME1 140140Z 20007KT 07/M03 A2997 RMK A01 T00671025  RH  052%=      5-min Rain = 0
KME1 140141Z 20007KT 07/M03 A2997 RMK A01 T00671025  RH  052%=      5-min Rain = 0
KME1 140142Z 20007KT 07/M03 A2997 RMK A01 T00661025  RH  052%=      5-min Rain = 0
KME1 140143Z 20007KT 07/M03 A2997 RMK A01 T00651025  RH  053%=      5-min Rain = 0
KME1 140144Z 20007KT 07/M03 A2997 RMK A01 T00651025  RH  053%=      5-min Rain = 0
KME1 140145Z 20007KT 07/M03 A2997 RMK A01 T00651025  RH  053%=      5-min Rain = 0
KME1 140146Z 20006KT 06/M03 A2997 RMK A01 T00641025  RH  053%=      5-min Rain = 0
KME1 140147Z 20006KT 06/M02 A2997 RMK A01 T00641024  RH  053%=      5-min Rain = 0
KME1 140148Z 20006KT 06/M02 A2997 RMK A01 T00641024  RH  054%=      5-min Rain = 0
KME1 140149Z 20006KT 06/M02 A2997 RMK A01 T00641023  RH  054%=      5-min Rain = 0
KME1 140150Z 20006KT 06/M02 A2997 RMK A01 T00641023  RH  054%=      5-min Rain = 0
KME1 140151Z 20007KT 07/M02 A2997 RMK A01 T00651022  RH  054%=      5-min Rain = 0
KME1 140152Z 19007KT 07/M02 A2997 RMK A01 T00661022  RH  053%=      5-min Rain = 0
KME1 140153Z 19007KT 07/M02 A2997 RMK A01 T00661022  RH  053%=      5-min Rain = 0
KME1 140154Z 19007KT 07/M02 A2997 RMK A01 T00671021  RH  053%=      5-min Rain = 0
KME1 140155Z 19007KT 07/M02 A2997 RMK A01 T00671021  RH  054%=      5-min Rain = 0
KME1 140156Z 19007KT 07/M02 A2997 RMK A01 T00671021  RH  054%=      5-min Rain = 0
KME1 140157Z 20007KT 07/M02 A2997 RMK A01 T00671021  RH  053%=      5-min Rain = 0
KME1 140158Z 19007KT 07/M02 A2997 RMK A01 T00671021  RH  053%=      5-min Rain = 0
KME1 140159Z 20007KT 07/M02 A2997 RMK A01 T00671021  RH  054%=      5-min Rain = 0
KME1 140200Z 19007KT 07/M02 A2997 RMK A01 T00671021  RH  054%=      5-min Rain = 0
KME1 140201Z 20007KT 07/M02 A2997 RMK A01 T00661021  RH  054%=      5-min Rain = 0
KME1 140202Z 20007KT 07/M02 A2997 RMK A01 T00671021  RH  054%=      5-min Rain = 0
KME1 140203Z 20007KT 07/M02 A2997 RMK A01 T00671021  RH  054%=      5-min Rain = 0
KME1 140204Z 19007KT 07/M02 A2997 RMK A01 T00671021  RH  053%=      5-min Rain = 0
KME1 140205Z 20007KT 07/M02 A2997 RMK A01 T00671021  RH  053%=      5-min Rain = 0
KME1 140206Z 20007KT 07/M02 A2997 RMK A01 T00671021  RH  053%=      5-min Rain = 0
KME1 140207Z 20007KT 07/M02 A2997 RMK A01 T00681021  RH  053%=      5-min Rain = 0
KME1 140208Z 20007KT 07/M02 A2997 RMK A01 T00691020  RH  053%=      5-min Rain = 0
KME1 140209Z 20007KT 07/M02 A2997 RMK A01 T00701020  RH  053%=      5-min Rain = 0
KME1 140210Z 20008KT 07/M02 A2997 RMK A01 T00711020  RH  052%=      5-min Rain = 0
KME1 140211Z 20008KT 07/M02 A2997 RMK A01 T00731019  RH  052%=      5-min Rain = 0
KME1 140212Z 20008KT 07/M02 A2997 RMK A01 T00741019  RH  052%=      5-min Rain = 0
KME1 140213Z 20007KT 08/M02 A2997 RMK A01 T00761018  RH  051%=      5-min Rain = 0
KME1 140214Z 20007KT 08/M02 A2998 RMK A01 T00771019  RH  051%=      5-min Rain = 0
KME1 140215Z 20008KT 08/M02 A2998 RMK A01 T00781019  RH  050%=      5-min Rain = 0
KME1 140216Z 19006KT 08/M02 A2998 RMK A01 T00781019  RH  050%=      5-min Rain = 0
KME1 140217Z 20007KT 08/M02 A2998 RMK A01 T00781019  RH  050%=      5-min Rain = 0
KME1 140218Z 19007KT 08/M02 A2998 RMK A01 T00781018  RH  050%=      5-min Rain = 0
KME1 140219Z 19007KT 08/M02 A2998 RMK A01 T00781018  RH  051%=      5-min Rain = 0
KME1 140220Z 19007KT 08/M02 A2998 RMK A01 T00771019  RH  051%=      5-min Rain = 0
KME1 140221Z 20007KT 08/M02 A2998 RMK A01 T00771018  RH  051%=      5-min Rain = 0
KME1 140222Z 19007KT 08/M02 A2998 RMK A01 T00771019  RH  051%=      5-min Rain = 0
KME1 140223Z 20007KT 08/M02 A2998 RMK A01 T00771019  RH  051%=      5-min Rain = 0
KME1 140224Z 19008KT 08/M02 A2998 RMK A01 T00771019  RH  051%=      5-min Rain = 0
KME1 140225Z 20007KT 08/M02 A2998 RMK A01 T00761019  RH  051%=      5-min Rain = 0
KME1 140226Z 19007KT 08/M02 A2998 RMK A01 T00771019  RH  051%=      5-min Rain = 0
KME1 140227Z 20008KT 08/M02 A2998 RMK A01 T00771018  RH  051%=      5-min Rain = 0
KME1 140228Z 20007KT 08/M02 A2998 RMK A01 T00761018  RH  051%=      5-min Rain = 0
KME1 140229Z 20008KT 08/M02 A2997 RMK A01 T00761018  RH  051%=      5-min Rain = 0
KME1 140230Z 20009KT 08/M02 A2997 RMK A01 T00771018  RH  051%=      5-min Rain = 0
KME1 140231Z 20008KT 08/M02 A2997 RMK A01 T00801018  RH  050%=      5-min Rain = 0
KME1 140232Z 20008KT 08/M02 A2997 RMK A01 T00831018  RH  049%=      5-min Rain = 0
KME1 140233Z 20009KT 08/M02 A2997 RMK A01 T00831019  RH  049%=      5-min Rain = 0
KME1 140234Z 20007KT 08/M02 A2997 RMK A01 T00841019  RH  048%=      5-min Rain = 0
KME1 140235Z 20009KT 08/M02 A2997 RMK A01 T00841019  RH  048%=      5-min Rain = 0
KME1 140236Z 20009KT 08/M02 A2997 RMK A01 T00841020  RH  048%=      5-min Rain = 0
KME1 140237Z 20008KT 09/M02 A2997 RMK A01 T00851020  RH  048%=      5-min Rain = 0
KME1 140238Z 20010KT 09/M02 A2997 RMK A01 T00851020  RH  048%=      5-min Rain = 0
KME1 140239Z 20009KT 09/M02 A2997 RMK A01 T00861021  RH  047%=      5-min Rain = 0
KME1 140240Z 20008KT 09/M02 A2997 RMK A01 T00871021  RH  047%=      5-min Rain = 0
KME1 140241Z 19008KT 09/M02 A2997 RMK A01 T00871021  RH  047%=      5-min Rain = 0
KME1 140242Z 20008KT 08/M02 A2997 RMK A01 T00841021  RH  048%=      5-min Rain = 0
KME1 140243Z 20008KT 08/M02 A2997 RMK A01 T00811021  RH  049%=      5-min Rain = 0
KME1 140244Z 20008KT 08/M02 A2997 RMK A01 T00791022  RH  049%=      5-min Rain = 0
KME1 140245Z 20009KT 08/M02 A2997 RMK A01 T00801022  RH  049%=      5-min Rain = 0
KME1 140246Z 20009KT 08/M02 A2997 RMK A01 T00821022  RH  048%=      5-min Rain = 0
KME1 140247Z 20009KT 08/M02 A2997 RMK A01 T00841022  RH  047%=      5-min Rain = 0
KME1 140248Z 19009KT 08/M02 A2997 RMK A01 T00841021  RH  047%=      5-min Rain = 0
KME1 140249Z 20008KT 08/M02 A2997 RMK A01 T00841022  RH  047%=      5-min Rain = 0
KME1 140250Z 20009KT 09/M02 A2997 RMK A01 T00861022  RH  047%=      5-min Rain = 0
KME1 140251Z 20008KT 09/M02 A2997 RMK A01 T00861022  RH  046%=      5-min Rain = 0
KME1 140252Z 19009KT 09/M02 A2997 RMK A01 T00861023  RH  046%=      5-min Rain = 0
KME1 140253Z 20008KT 09/M02 A2997 RMK A01 T00851022  RH  047%=      5-min Rain = 0
KME1 140254Z 19009KT 09/M02 A2997 RMK A01 T00851022  RH  047%=      5-min Rain = 0
KME1 140255Z 20009KT 08/M02 A2997 RMK A01 T00831022  RH  047%=      5-min Rain = 0
KME1 140256Z 20008KT 08/M02 A2997 RMK A01 T00821022  RH  048%=      5-min Rain = 0
KME1 140257Z 19009KT 08/M02 A2997 RMK A01 T00821023  RH  048%=      5-min Rain = 0
KME1 140258Z 19008KT 08/M02 A2997 RMK A01 T00831022  RH  047%=      5-min Rain = 0
KME1 140259Z 20008KT 08/M02 A2997 RMK A01 T00821022  RH  048%=      5-min Rain = 0
KME1 140300Z 19008KT 08/M02 A2997 RMK A01 T00821022  RH  048%=      5-min Rain = 0
KME1 140301Z 20008KT 08/M02 A2997 RMK A01 T00811022  RH  048%=      5-min Rain = 0
KME1 140302Z 20008KT 08/M02 A2997 RMK A01 T00801023  RH  048%=      5-min Rain = 0
KME1 140303Z 19007KT 08/M02 A2997 RMK A01 T00801023  RH  048%=      5-min Rain = 0
KME1 140304Z 20008KT 08/M02 A2997 RMK A01 T00801024  RH  048%=      5-min Rain = 0
KME1 140305Z 20008KT 08/M02 A2997 RMK A01 T00801024  RH  048%=      5-min Rain = 0
KME1 140306Z 19008KT 08/M02 A2997 RMK A01 T00811024  RH  047%=      5-min Rain = 0
KME1 140307Z 20009KT 08/M02 A2997 RMK A01 T00821024  RH  047%=      5-min Rain = 0
KME1 140308Z 20008KT 08/M03 A2997 RMK A01 T00821025  RH  047%=      5-min Rain = 0
KME1 140309Z 19008KT 08/M02 A2997 RMK A01 T00821024  RH  047%=      5-min Rain = 0
KME1 140310Z 19008KT 08/M02 A2997 RMK A01 T00821024  RH  047%=      5-min Rain = 0
KME1 140311Z 20007KT 08/M02 A2997 RMK A01 T00821024  RH  047%=      5-min Rain = 0
KME1 140312Z 20008KT 08/M02 A2998 RMK A01 T00821024  RH  047%=      5-min Rain = 0
KME1 140313Z 20008KT 08/M02 A2998 RMK A01 T00811024  RH  047%=      5-min Rain = 0
KME1 140314Z 20009KT 08/M03 A2998 RMK A01 T00801025  RH  048%=      5-min Rain = 0
KME1 140315Z 20009KT 08/M03 A2998 RMK A01 T00821025  RH  047%=      5-min Rain = 0
KME1 140316Z 20010KT 08/M03 A2998 RMK A01 T00831025  RH  047%=      5-min Rain = 0
KME1 140317Z 20009KT 08/M03 A2998 RMK A01 T00841025  RH  046%=      5-min Rain = 0
KME1 140318Z 20008KT 08/M03 A2998 RMK A01 T00841025  RH  046%=      5-min Rain = 0
KME1 140319Z 20008KT 08/M02 A2998 RMK A01 T00841024  RH  046%=      5-min Rain = 0
KME1 140320Z 20008KT 08/M02 A2998 RMK A01 T00831024  RH  047%=      5-min Rain = 0
KME1 140321Z 20008KT 08/M02 A2998 RMK A01 T00831024  RH  047%=      5-min Rain = 0
KME1 140322Z 20009KT 08/M02 A2998 RMK A01 T00821024  RH  047%=      5-min Rain = 0
KME1 140323Z 20009KT 08/M02 A2998 RMK A01 T00821024  RH  047%=      5-min Rain = 0
KME1 140324Z 20009KT 08/M03 A2998 RMK A01 T00821025  RH  047%=      5-min Rain = 0
KME1 140325Z 19009KT 08/M02 A2998 RMK A01 T00831024  RH  047%=      5-min Rain = 0
KME1 140326Z 20009KT 08/M02 A2998 RMK A01 T00831024  RH  047%=      5-min Rain = 0
KME1 140327Z 19008KT 08/M02 A2998 RMK A01 T00831024  RH  047%=      5-min Rain = 0
KME1 140328Z 19008KT 08/M02 A2998 RMK A01 T00821024  RH  047%=      5-min Rain = 0
KME1 140329Z 19009KT 08/M02 A2998 RMK A01 T00821023  RH  047%=      5-min Rain = 0
KME1 140330Z 19009KT 08/M02 A2998 RMK A01 T00811023  RH  048%=      5-min Rain = 0
KME1 140331Z 19008KT 08/M02 A2998 RMK A01 T00811023  RH  048%=      5-min Rain = 0
KME1 140332Z 19008KT 08/M02 A2998 RMK A01 T00801023  RH  048%=      5-min Rain = 0
KME1 140333Z 19009KT 08/M02 A2998 RMK A01 T00801023  RH  048%=      5-min Rain = 0
KME1 140334Z 19008KT 08/M02 A2998 RMK A01 T00791023  RH  049%=      5-min Rain = 0
KME1 140335Z 19009KT 08/M02 A2998 RMK A01 T00791022  RH  049%=      5-min Rain = 0
KME1 140336Z 19008KT 08/M02 A2998 RMK A01 T00791022  RH  049%=      5-min Rain = 0
KME1 140337Z 19009KT 08/M02 A2997 RMK A01 T00791022  RH  049%=      5-min Rain = 0
KME1 140338Z 19010KT 08/M02 A2997 RMK A01 T00781022  RH  049%=      5-min Rain = 0
KME1 140339Z 19010KT 08/M02 A2997 RMK A01 T00791022  RH  049%=      5-min Rain = 0
KME1 140340Z 19009KT 08/M02 A2997 RMK A01 T00791022  RH  049%=      5-min Rain = 0
KME1 140341Z 19010KT 08/M02 A2997 RMK A01 T00801022  RH  049%=      5-min Rain = 0
KME1 140342Z 19010KT 08/M02 A2997 RMK A01 T00801022  RH  048%=      5-min Rain = 0
KME1 140343Z 19011KT 08/M02 A2997 RMK A01 T00811021  RH  048%=      5-min Rain = 0
KME1 140344Z 19011KT 08/M02 A2997 RMK A01 T00811021  RH  049%=      5-min Rain = 0
KME1 140345Z 19011KT 08/M02 A2997 RMK A01 T00811021  RH  049%=      5-min Rain = 0
KME1 140346Z 19011KT 08/M02 A2997 RMK A01 T00811022  RH  048%=      5-min Rain = 0
KME1 140347Z 19009KT 08/M02 A2997 RMK A01 T00811021  RH  049%=      5-min Rain = 0
KME1 140348Z 19010KT 08/M02 A2997 RMK A01 T00801021  RH  049%=      5-min Rain = 0
KME1 140349Z 19012KT 08/M02 A2996 RMK A01 T00781021  RH  050%=      5-min Rain = 0
KME1 140350Z 19011KT 08/M02 A2996 RMK A01 T00771021  RH  050%=      5-min Rain = 0
KME1 140351Z 20011KT 08/M02 A2996 RMK A01 T00781021  RH  050%=      5-min Rain = 0
KME1 140352Z 19010KT 08/M02 A2996 RMK A01 T00781021  RH  049%=      5-min Rain = 0
KME1 140353Z 19010KT 08/M02 A2996 RMK A01 T00781021  RH  049%=      5-min Rain = 0
KME1 140354Z 19011KT 08/M02 A2996 RMK A01 T00791021  RH  049%=      5-min Rain = 0
KME1 140355Z 19010KT 08/M02 A2996 RMK A01 T00781021  RH  050%=      5-min Rain = 0
KME1 140356Z 20010KT 08/M02 A2996 RMK A01 T00781021  RH  050%=      5-min Rain = 0
KME1 140357Z 20012KT 08/M02 A2996 RMK A01 T00781021  RH  049%=      5-min Rain = 0
KME1 140358Z 20012KT 08/M02 A2996 RMK A01 T00791021  RH  049%=      5-min Rain = 0
KME1 140359Z 19012KT 08/M02 A2996 RMK A01 T00811021  RH  049%=      5-min Rain = 0
KME1 140400Z 20012KT 08/M02 A2996 RMK A01 T00811020  RH  049%=      5-min Rain = 0
KME1 140401Z 19011KT 08/M02 A2996 RMK A01 T00811020  RH  049%=      5-min Rain = 0
KME1 140402Z 19012KT 08/M02 A2996 RMK A01 T00811020  RH  049%=      5-min Rain = 0
KME1 140403Z 19012KT 08/M02 A2996 RMK A01 T00791020  RH  049%=      5-min Rain = 0
KME1 140404Z 20012KT 08/M02 A2996 RMK A01 T00801020  RH  049%=      5-min Rain = 0
KME1 140405Z 20012KT 08/M02 A2996 RMK A01 T00801020  RH  049%=      5-min Rain = 0
KME1 140406Z 20010KT 08/M02 A2996 RMK A01 T00801020  RH  049%=      5-min Rain = 0
KME1 140407Z 20010KT 08/M02 A2996 RMK A01 T00801020  RH  050%=      5-min Rain = 0
KME1 140408Z 19011KT 08/M02 A2996 RMK A01 T00791020  RH  050%=      5-min Rain = 0
KME1 140409Z 20010KT 08/M02 A2996 RMK A01 T00791019  RH  050%=      5-min Rain = 0
KME1 140410Z 20011KT 08/M02 A2996 RMK A01 T00791020  RH  050%=      5-min Rain = 0
KME1 140411Z 19011KT 08/M02 A2996 RMK A01 T00791020  RH  050%=      5-min Rain = 0
KME1 140412Z 20011KT 08/M02 A2996 RMK A01 T00781019  RH  050%=      5-min Rain = 0
KME1 140413Z 20013KT 08/M02 A2996 RMK A01 T00781020  RH  050%=      5-min Rain = 0
KME1 140414Z 20012KT 08/M02 A2996 RMK A01 T00801020  RH  049%=      5-min Rain = 0
KME1 140415Z 20012KT 08/M02 A2996 RMK A01 T00801020  RH  049%=      5-min Rain = 0
KME1 140416Z 20011KT 08/M02 A2996 RMK A01 T00801020  RH  049%=      5-min Rain = 0
KME1 140417Z 20013KT 08/M02 A2996 RMK A01 T00801020  RH  050%=      5-min Rain = 0
KME1 140418Z 20010KT 08/M02 A2996 RMK A01 T00791020  RH  050%=      5-min Rain = 0
KME1 140419Z 19011G16KT 08/M02 A2996 RMK A01 T00791020  RH  050%=      5-min Rain = 0
KME1 140420Z 20010KT 08/M02 A2996 RMK A01 T00781020  RH  050%=      5-min Rain = 0
KME1 140421Z 19011KT 08/M02 A2996 RMK A01 T00781020  RH  050%=      5-min Rain = 0
KME1 140422Z 20012KT 08/M02 A2996 RMK A01 T00781020  RH  050%=      5-min Rain = 0
KME1 140423Z 19012KT 08/M02 A2996 RMK A01 T00781020  RH  050%=      5-min Rain = 0
KME1 140424Z 19011KT 08/M02 A2996 RMK A01 T00791019  RH  050%=      5-min Rain = 0
KME1 140425Z 19011KT 08/M02 A2996 RMK A01 T00791019  RH  050%=      5-min Rain = 0
KME1 140426Z 19012KT 08/M02 A2996 RMK A01 T00791019  RH  050%=      5-min Rain = 0
KME1 140427Z 19012KT 08/M02 A2996 RMK A01 T00791019  RH  050%=      5-min Rain = 0
KME1 140428Z 19011KT 08/M02 A2996 RMK A01 T00791019  RH  050%=      5-min Rain = 0
KME1 140429Z 20011KT 08/M02 A2996 RMK A01 T00791019  RH  050%=      5-min Rain = 0
KME1 140430Z 19013KT 08/M02 A2996 RMK A01 T00791019  RH  050%=      5-min Rain = 0
KME1 140431Z 19012KT 08/M02 A2996 RMK A01 T00791019  RH  050%=      5-min Rain = 0
KME1 140432Z 20012KT 08/M02 A2996 RMK A01 T00791019  RH  050%=      5-min Rain = 0
KME1 140433Z 20012KT 08/M02 A2996 RMK A01 T00791019  RH  050%=      5-min Rain = 0
KME1 140434Z 20012KT 08/M02 A2996 RMK A01 T00791019  RH  050%=      5-min Rain = 0
KME1 140435Z 20011KT 08/M02 A2996 RMK A01 T00801018  RH  050%=      5-min Rain = 0
KME1 140436Z 20012G18KT 08/M02 A2996 RMK A01 T00791018  RH  050%=      5-min Rain = 0
KME1 140437Z 19012KT 08/M02 A2996 RMK A01 T00791018  RH  050%=      5-min Rain = 0
KME1 140438Z 19013KT 08/M02 A2996 RMK A01 T00781019  RH  050%=      5-min Rain = 0
KME1 140439Z 20013KT 08/M02 A2996 RMK A01 T00791018  RH  050%=      5-min Rain = 0
KME1 140440Z 20011KT 08/M02 A2996 RMK A01 T00791018  RH  050%=      5-min Rain = 0
KME1 140441Z 19012G17KT 08/M02 A2996 RMK A01 T00781018  RH  050%=      5-min Rain = 0
KME1 140442Z 19013KT 08/M02 A2996 RMK A01 T00781018  RH  051%=      5-min Rain = 0
KME1 140443Z 19011KT 08/M02 A2996 RMK A01 T00781018  RH  051%=      5-min Rain = 0
KME1 140444Z 19012KT 08/M02 A2996 RMK A01 T00771018  RH  051%=      5-min Rain = 0
KME1 140445Z 20010KT 08/M02 A2996 RMK A01 T00771018  RH  051%=      5-min Rain = 0
KME1 140446Z 19011KT 08/M02 A2996 RMK A01 T00771018  RH  051%=      5-min Rain = 0
KME1 140447Z 19012KT 08/M02 A2995 RMK A01 T00771018  RH  051%=      5-min Rain = 0
KME1 140448Z 20012KT 08/M02 A2995 RMK A01 T00761017  RH  051%=      5-min Rain = 0
KME1 140449Z 20012KT 08/M02 A2995 RMK A01 T00761018  RH  052%=      5-min Rain = 0
KME1 140450Z 20012KT 08/M02 A2995 RMK A01 T00761018  RH  051%=      5-min Rain = 0
KME1 140451Z 20012KT 08/M02 A2995 RMK A01 T00761018  RH  051%=      5-min Rain = 0
KME1 140452Z 20011KT 08/M02 A2995 RMK A01 T00761018  RH  051%=      5-min Rain = 0
KME1 140453Z 20012KT 08/M02 A2995 RMK A01 T00771018  RH  051%=      5-min Rain = 0
KME1 140454Z 20012G17KT 08/M02 A2995 RMK A01 T00771018  RH  051%=      5-min Rain = 0
KME1 140455Z 20014KT 08/M02 A2995 RMK A01 T00771018  RH  051%=      5-min Rain = 0
KME1 140456Z 20012KT 08/M02 A2995 RMK A01 T00771018  RH  051%=      5-min Rain = 0
KME1 140457Z 20010KT 08/M02 A2995 RMK A01 T00771017  RH  051%=      5-min Rain = 0
KME1 140458Z 20012KT 08/M02 A2995 RMK A01 T00761017  RH  052%=      5-min Rain = 0
KME1 140459Z 20012G17KT 08/M02 A2995 RMK A01 T00761017  RH  052%=      5-min Rain = 0
KME1 140500Z 20012KT 08/M02 A2995 RMK A01 T00761017  RH  052%=      5-min Rain = 0
KME1 140501Z 20014KT 08/M02 A2995 RMK A01 T00761017  RH  052%=      5-min Rain = 0
KME1 140502Z 20013KT 08/M02 A2995 RMK A01 T00761017  RH  052%=      5-min Rain = 0
KME1 140503Z 20014G20KT 08/M02 A2995 RMK A01 T00761017  RH  052%=      5-min Rain = 0
KME1 140504Z 20013KT 08/M02 A2995 RMK A01 T00771017  RH  051%=      5-min Rain = 0
KME1 140505Z 20014KT 08/M02 A2995 RMK A01 T00771017  RH  051%=      5-min Rain = 0
KME1 140506Z 20014KT 08/M02 A2995 RMK A01 T00761017  RH  052%=      5-min Rain = 0
KME1 140507Z 20014KT 08/M02 A2995 RMK A01 T00761017  RH  051%=      5-min Rain = 0
KME1 140508Z 20014KT 08/M02 A2995 RMK A01 T00771017  RH  051%=      5-min Rain = 0
KME1 140509Z 20012KT 08/M02 A2995 RMK A01 T00761017  RH  051%=      5-min Rain = 0
KME1 140510Z 20013KT 08/M02 A2995 RMK A01 T00761017  RH  052%=      5-min Rain = 0
KME1 140511Z 20012KT 08/M02 A2995 RMK A01 T00751017  RH  052%=      5-min Rain = 0
KME1 140512Z 20012KT 08/M02 A2995 RMK A01 T00751017  RH  052%=      5-min Rain = 0
KME1 140513Z 20013KT 08/M02 A2995 RMK A01 T00751017  RH  052%=      5-min Rain = 0
KME1 140514Z 20013KT 08/M02 A2995 RMK A01 T00751017  RH  052%=      5-min Rain = 0
KME1 140515Z 20014KT 08/M02 A2994 RMK A01 T00751017  RH  052%=      5-min Rain = 0
KME1 140516Z 20012KT 07/M02 A2995 RMK A01 T00741017  RH  052%=      5-min Rain = 0
KME1 140517Z 20012KT 08/M02 A2994 RMK A01 T00751017  RH  052%=      5-min Rain = 0
KME1 140518Z 20013KT 07/M02 A2994 RMK A01 T00741017  RH  052%=      5-min Rain = 0
KME1 140519Z 21014KT 07/M02 A2994 RMK A01 T00741017  RH  052%=      5-min Rain = 0
KME1 140520Z 20013KT 08/M02 A2994 RMK A01 T00751017  RH  052%=      5-min Rain = 0
KME1 140521Z 20013KT 08/M02 A2994 RMK A01 T00751017  RH  052%=      5-min Rain = 0
KME1 140522Z 20012G17KT 07/M02 A2994 RMK A01 T00741017  RH  052%=      5-min Rain = 0
KME1 140523Z 20015G20KT 07/M02 A2994 RMK A01 T00741017  RH  052%=      5-min Rain = 0
KME1 140524Z 20013KT 07/M02 A2994 RMK A01 T00741017  RH  053%=      5-min Rain = 0
KME1 140525Z 20015KT 07/M02 A2994 RMK A01 T00741017  RH  053%=      5-min Rain = 0
KME1 140526Z 20012KT 07/M02 A2995 RMK A01 T00741017  RH  052%=      5-min Rain = 0
KME1 140527Z 20013KT 07/M02 A2995 RMK A01 T00731017  RH  053%=      5-min Rain = 0
KME1 140528Z 20013KT 07/M02 A2995 RMK A01 T00731017  RH  053%=      5-min Rain = 0
KME1 140529Z 20014KT 07/M02 A2995 RMK A01 T00731017  RH  053%=      5-min Rain = 0
KME1 140530Z 20012KT 07/M02 A2995 RMK A01 T00731017  RH  053%=      5-min Rain = 0
KME1 140531Z 20013KT 07/M02 A2995 RMK A01 T00731017  RH  053%=      5-min Rain = 0
KME1 140532Z 20013KT 07/M02 A2995 RMK A01 T00731017  RH  053%=      5-min Rain = 0
KME1 140533Z 20014KT 07/M02 A2994 RMK A01 T00731017  RH  053%=      5-min Rain = 0
KME1 140534Z 20013KT 07/M02 A2994 RMK A01 T00741017  RH  053%=      5-min Rain = 0
KME1 140535Z 20012KT 07/M02 A2994 RMK A01 T00731017  RH  053%=      5-min Rain = 0
KME1 140536Z 20013G18KT 07/M02 A2994 RMK A01 T00731017  RH  053%=      5-min Rain = 0
KME1 140537Z 20012KT 07/M02 A2994 RMK A01 T00731017  RH  053%=      5-min Rain = 0
KME1 140538Z 20012KT 07/M02 A2994 RMK A01 T00731017  RH  053%=      5-min Rain = 0
KME1 140539Z 20014KT 07/M02 A2994 RMK A01 T00731017  RH  053%=      5-min Rain = 0
KME1 140540Z 20014KT 07/M02 A2994 RMK A01 T00731017  RH  053%=      5-min Rain = 0
KME1 140541Z 20013KT 07/M02 A2994 RMK A01 T00731017  RH  053%=      5-min Rain = 0
KME1 140542Z 20012KT 07/M02 A2994 RMK A01 T00721017  RH  053%=      5-min Rain = 0
KME1 140543Z 20013KT 07/M02 A2994 RMK A01 T00721017  RH  053%=      5-min Rain = 0
KME1 140544Z 20014KT 07/M02 A2994 RMK A01 T00711017  RH  053%=      5-min Rain = 0
KME1 140545Z 20013KT 07/M02 A2994 RMK A01 T00711017  RH  054%=      5-min Rain = 0
KME1 140546Z 20013G19KT 07/M02 A2994 RMK A01 T00711017  RH  053%=      5-min Rain = 0
KME1 140547Z 20015KT 07/M02 A2994 RMK A01 T00711017  RH  053%=      5-min Rain = 0
KME1 140548Z 20013KT 07/M02 A2994 RMK A01 T00711017  RH  053%=      5-min Rain = 0
KME1 140549Z 20012KT 07/M02 A2994 RMK A01 T00711017  RH  053%=      5-min Rain = 0
KME1 140550Z 19013KT 07/M02 A2994 RMK A01 T00711018  RH  053%=      5-min Rain = 0
KME1 140551Z 20012KT 07/M02 A2994 RMK A01 T00711017  RH  053%=      5-min Rain = 0
KME1 140552Z 20014G19KT 07/M02 A2994 RMK A01 T00701017  RH  054%=      5-min Rain = 0
KME1 140553Z 20013G18KT 07/M02 A2994 RMK A01 T00701017  RH  054%=      5-min Rain = 0
KME1 140554Z 20013KT 07/M02 A2994 RMK A01 T00701017  RH  054%=      5-min Rain = 0
KME1 140555Z 19013KT 07/M02 A2994 RMK A01 T00701017  RH  054%=      5-min Rain = 0
KME1 140556Z 20013KT 07/M02 A2994 RMK A01 T00701018  RH  054%=      5-min Rain = 0
KME1 140557Z 20014KT 07/M02 A2994 RMK A01 T00701017  RH  054%=      5-min Rain = 0
KME1 140558Z 20012G17KT 07/M02 A2993 RMK A01 T00701018  RH  054%=      5-min Rain = 0
KME1 140559Z 20015KT 07/M02 A2993 RMK A01 T00691018  RH  054%=      5-min Rain = 0

Page generated in 0.1371 seconds.